Observation data for Knox City on 02/24/2021      Previous  Date  Next       Current Mesonet Observations  Soil Data  Daily Summary Page  Observations in Plain Language
KKN1 240600Z 23018G26KT 17/07 A2979 RMK A01 T01710072  RH  052%=      5-min Rain = 0
KKN1 240601Z 23019KT 17/07 A2979 RMK A01 T01710072  RH  052%=      5-min Rain = 0
KKN1 240602Z 22019G24KT 17/07 A2979 RMK A01 T01720073  RH  052%=      5-min Rain = 0
KKN1 240603Z 23018G23KT 17/07 A2979 RMK A01 T01720073  RH  052%=      5-min Rain = 0
KKN1 240604Z 22018G23KT 17/07 A2979 RMK A01 T01720074  RH  052%=      5-min Rain = 0
KKN1 240605Z 22018G24KT 17/07 A2979 RMK A01 T01720074  RH  053%=      5-min Rain = 0
KKN1 240606Z 22018G24KT 17/08 A2979 RMK A01 T01720075  RH  053%=      5-min Rain = 0
KKN1 240607Z 22017G22KT 17/08 A2979 RMK A01 T01720075  RH  053%=      5-min Rain = 0
KKN1 240608Z 22019G24KT 17/08 A2979 RMK A01 T01710076  RH  053%=      5-min Rain = 0
KKN1 240609Z 22018KT 17/08 A2979 RMK A01 T01710076  RH  053%=      5-min Rain = 0
KKN1 240610Z 22018G25KT 17/08 A2979 RMK A01 T01710077  RH  054%=      5-min Rain = 0
KKN1 240611Z 22016G21KT 17/08 A2979 RMK A01 T01710077  RH  054%=      5-min Rain = 0
KKN1 240612Z 22019G25KT 17/08 A2979 RMK A01 T01710077  RH  054%=      5-min Rain = 0
KKN1 240613Z 22020G25KT 17/08 A2979 RMK A01 T01710078  RH  054%=      5-min Rain = 0
KKN1 240614Z 22017G25KT 17/08 A2979 RMK A01 T01720079  RH  054%=      5-min Rain = 0
KKN1 240615Z 22020G26KT 17/08 A2979 RMK A01 T01720079  RH  054%=      5-min Rain = 0
KKN1 240616Z 23019KT 17/08 A2979 RMK A01 T01730080  RH  054%=      5-min Rain = 0
KKN1 240617Z 22018G25KT 17/08 A2979 RMK A01 T01730080  RH  054%=      5-min Rain = 0
KKN1 240618Z 22017KT 17/08 A2979 RMK A01 T01730080  RH  054%=      5-min Rain = 0
KKN1 240619Z 22019G24KT 17/08 A2979 RMK A01 T01720081  RH  055%=      5-min Rain = 0
KKN1 240620Z 22019KT 17/08 A2979 RMK A01 T01730081  RH  055%=      5-min Rain = 0
KKN1 240621Z 22017KT 17/08 A2979 RMK A01 T01740081  RH  055%=      5-min Rain = 0
KKN1 240622Z 22017G24KT 17/08 A2979 RMK A01 T01730082  RH  055%=      5-min Rain = 0
KKN1 240623Z 22017G24KT 17/08 A2979 RMK A01 T01730082  RH  055%=      5-min Rain = 0
KKN1 240624Z 23017G22KT 17/08 A2979 RMK A01 T01730083  RH  055%=      5-min Rain = 0
KKN1 240625Z 22016KT 17/08 A2979 RMK A01 T01730083  RH  055%=      5-min Rain = 0
KKN1 240626Z 23018G24KT 17/08 A2979 RMK A01 T01730083  RH  056%=      5-min Rain = 0
KKN1 240627Z 23016G21KT 17/08 A2979 RMK A01 T01730084  RH  056%=      5-min Rain = 0
KKN1 240628Z 23016KT 17/08 A2979 RMK A01 T01730084  RH  056%=      5-min Rain = 0
KKN1 240629Z 23016G21KT 17/09 A2979 RMK A01 T01730085  RH  056%=      5-min Rain = 0
KKN1 240630Z 23016KT 17/09 A2979 RMK A01 T01730085  RH  056%=      5-min Rain = 0
KKN1 240631Z 23014KT 17/09 A2979 RMK A01 T01730086  RH  057%=      5-min Rain = 0
KKN1 240632Z 23017G22KT 17/09 A2979 RMK A01 T01730086  RH  057%=      5-min Rain = 0
KKN1 240633Z 23016G21KT 17/09 A2979 RMK A01 T01730087  RH  057%=      5-min Rain = 0
KKN1 240634Z 23016G21KT 17/09 A2979 RMK A01 T01730087  RH  057%=      5-min Rain = 0
KKN1 240635Z 23016KT 17/09 A2979 RMK A01 T01730088  RH  057%=      5-min Rain = 0
KKN1 240636Z 23016KT 17/09 A2979 RMK A01 T01730088  RH  057%=      5-min Rain = 0
KKN1 240637Z 23018G23KT 17/09 A2979 RMK A01 T01740088  RH  057%=      5-min Rain = 0
KKN1 240638Z 23015G21KT 17/09 A2979 RMK A01 T01740089  RH  057%=      5-min Rain = 0
KKN1 240639Z 23015KT 17/09 A2979 RMK A01 T01740089  RH  057%=      5-min Rain = 0
KKN1 240640Z 23017KT 17/09 A2979 RMK A01 T01730089  RH  058%=      5-min Rain = 0
KKN1 240641Z 23016G21KT 17/09 A2979 RMK A01 T01730090  RH  058%=      5-min Rain = 0
KKN1 240642Z 23016KT 17/09 A2979 RMK A01 T01730090  RH  058%=      5-min Rain = 0
KKN1 240643Z 23017G22KT 17/09 A2979 RMK A01 T01730090  RH  058%=      5-min Rain = 0
KKN1 240644Z 23017G22KT 17/09 A2979 RMK A01 T01730091  RH  059%=      5-min Rain = 0
KKN1 240645Z 22016G21KT 17/09 A2979 RMK A01 T01730091  RH  059%=      5-min Rain = 0
KKN1 240646Z 22016KT 17/09 A2979 RMK A01 T01730091  RH  059%=      5-min Rain = 0
KKN1 240647Z 23017KT 17/09 A2979 RMK A01 T01730092  RH  059%=      5-min Rain = 0
KKN1 240648Z 23017G22KT 17/09 A2979 RMK A01 T01730092  RH  059%=      5-min Rain = 0
KKN1 240649Z 23018G23KT 17/09 A2979 RMK A01 T01740092  RH  059%=      5-min Rain = 0
KKN1 240650Z 23017G25KT 17/09 A2979 RMK A01 T01740093  RH  059%=      5-min Rain = 0
KKN1 240651Z 23017KT 17/09 A2979 RMK A01 T01740093  RH  059%=      5-min Rain = 0
KKN1 240652Z 23017G22KT 17/09 A2979 RMK A01 T01740093  RH  059%=      5-min Rain = 0
KKN1 240653Z 23016KT 17/09 A2979 RMK A01 T01740093  RH  059%=      5-min Rain = 0
KKN1 240654Z 23015G21KT 17/09 A2979 RMK A01 T01740093  RH  059%=      5-min Rain = 0
KKN1 240655Z 23018G24KT 17/09 A2979 RMK A01 T01740094  RH  059%=      5-min Rain = 0
KKN1 240656Z 23019G24KT 17/09 A2979 RMK A01 T01740094  RH  059%=      5-min Rain = 0
KKN1 240657Z 23017KT 18/09 A2979 RMK A01 T01750094  RH  059%=      5-min Rain = 0
KKN1 240658Z 23019G24KT 18/09 A2979 RMK A01 T01750094  RH  059%=      5-min Rain = 0
KKN1 240659Z 23018KT 17/09 A2979 RMK A01 T01740094  RH  059%=      5-min Rain = 0
KKN1 240700Z 22018G23KT 17/09 A2979 RMK A01 T01740094  RH  059%=      5-min Rain = 0
KKN1 240701Z 23017KT 17/10 A2979 RMK A01 T01740095  RH  060%=      5-min Rain = 0
KKN1 240702Z 22016G21KT 17/09 A2979 RMK A01 T01730094  RH  060%=      5-min Rain = 0
KKN1 240703Z 22017G23KT 17/10 A2979 RMK A01 T01720095  RH  060%=      5-min Rain = 0
KKN1 240704Z 23018KT 17/10 A2979 RMK A01 T01720095  RH  061%=      5-min Rain = 0
KKN1 240705Z 22017G22KT 17/10 A2979 RMK A01 T01720095  RH  061%=      5-min Rain = 0
KKN1 240706Z 22017KT 17/10 A2979 RMK A01 T01720095  RH  061%=      5-min Rain = 0
KKN1 240707Z 22018G25KT 17/10 A2979 RMK A01 T01720095  RH  061%=      5-min Rain = 0
KKN1 240708Z 22017G22KT 17/10 A2979 RMK A01 T01720095  RH  061%=      5-min Rain = 0
KKN1 240709Z 22017G25KT 17/10 A2979 RMK A01 T01720095  RH  061%=      5-min Rain = 0
KKN1 240710Z 22017KT 17/10 A2979 RMK A01 T01710095  RH  061%=      5-min Rain = 0
KKN1 240711Z 22018KT 17/10 A2979 RMK A01 T01700096  RH  062%=      5-min Rain = 0
KKN1 240712Z 22016KT 17/10 A2979 RMK A01 T01700096  RH  061%=      5-min Rain = 0
KKN1 240713Z 22018G26KT 17/10 A2979 RMK A01 T01700096  RH  061%=      5-min Rain = 0
KKN1 240714Z 22019G24KT 17/10 A2979 RMK A01 T01710096  RH  061%=      5-min Rain = 0
KKN1 240715Z 22017KT 17/10 A2979 RMK A01 T01720096  RH  061%=      5-min Rain = 0
KKN1 240716Z 22019G26KT 17/10 A2979 RMK A01 T01710096  RH  061%=      5-min Rain = 0
KKN1 240717Z 22020KT 17/10 A2979 RMK A01 T01710096  RH  061%=      5-min Rain = 0
KKN1 240718Z 22016KT 17/10 A2979 RMK A01 T01720096  RH  061%=      5-min Rain = 0
KKN1 240719Z 22017G22KT 17/10 A2979 RMK A01 T01720096  RH  061%=      5-min Rain = 0
KKN1 240720Z 22018G23KT 17/10 A2979 RMK A01 T01710096  RH  062%=      5-min Rain = 0
KKN1 240721Z 22019KT 17/10 A2979 RMK A01 T01700096  RH  062%=      5-min Rain = 0
KKN1 240722Z 23018G25KT 17/10 A2979 RMK A01 T01710097  RH  062%=      5-min Rain = 0
KKN1 240723Z 23017KT 17/10 A2979 RMK A01 T01710097  RH  062%=      5-min Rain = 0
KKN1 240724Z 22019KT 17/10 A2979 RMK A01 T01710097  RH  062%=      5-min Rain = 0
KKN1 240725Z 23019G28KT 17/10 A2979 RMK A01 T01720097  RH  062%=      5-min Rain = 0
KKN1 240726Z 23016G21KT 17/10 A2979 RMK A01 T01720097  RH  061%=      5-min Rain = 0
KKN1 240727Z 22016G21KT 17/10 A2979 RMK A01 T01720097  RH  061%=      5-min Rain = 0
KKN1 240728Z 22016G24KT 17/10 A2979 RMK A01 T01710097  RH  062%=      5-min Rain = 0
KKN1 240729Z 23018G23KT 17/10 A2979 RMK A01 T01710097  RH  062%=      5-min Rain = 0
KKN1 240730Z 23019G24KT 17/10 A2979 RMK A01 T01710098  RH  062%=      5-min Rain = 0
KKN1 240731Z 23017KT 17/10 A2979 RMK A01 T01720097  RH  062%=      5-min Rain = 0
KKN1 240732Z 23017KT 17/10 A2979 RMK A01 T01720098  RH  062%=      5-min Rain = 0
KKN1 240733Z 22017KT 17/10 A2979 RMK A01 T01710098  RH  062%=      5-min Rain = 0
KKN1 240734Z 22018G23KT 17/10 A2979 RMK A01 T01700098  RH  062%=      5-min Rain = 0
KKN1 240735Z 23016G21KT 17/10 A2979 RMK A01 T01710098  RH  062%=      5-min Rain = 0
KKN1 240736Z 22018G27KT 17/10 A2979 RMK A01 T01710098  RH  062%=      5-min Rain = 0
KKN1 240737Z 23018KT 17/10 A2979 RMK A01 T01700098  RH  062%=      5-min Rain = 0
KKN1 240738Z 22016KT 17/10 A2979 RMK A01 T01710098  RH  062%=      5-min Rain = 0
KKN1 240739Z 23014G19KT 17/10 A298 RMK A01 T01700098  RH  062%=      5-min Rain = 0
KKN1 240740Z 22014G19KT 17/10 A298 RMK A01 T01690098  RH  063%=      5-min Rain = 0
KKN1 240741Z 22016KT 17/10 A2979 RMK A01 T01670098  RH  064%=      5-min Rain = 0
KKN1 240742Z 23017G24KT 17/10 A2979 RMK A01 T01670098  RH  064%=      5-min Rain = 0
KKN1 240743Z 23018G23KT 17/10 A2979 RMK A01 T01680098  RH  063%=      5-min Rain = 0
KKN1 240744Z 23016KT 17/10 A2979 RMK A01 T01690099  RH  063%=      5-min Rain = 0
KKN1 240745Z 23017G22KT 17/10 A298 RMK A01 T01690098  RH  063%=      5-min Rain = 0
KKN1 240746Z 23016KT 17/10 A298 RMK A01 T01680098  RH  063%=      5-min Rain = 0
KKN1 240747Z 23017KT 17/10 A298 RMK A01 T01680098  RH  063%=      5-min Rain = 0
KKN1 240748Z 23016KT 17/10 A298 RMK A01 T01680099  RH  064%=      5-min Rain = 0
KKN1 240749Z 22014KT 17/10 A298 RMK A01 T01670098  RH  064%=      5-min Rain = 0
KKN1 240750Z 23015G22KT 17/10 A298 RMK A01 T01660098  RH  064%=      5-min Rain = 0
KKN1 240751Z 23016KT 17/10 A298 RMK A01 T01650098  RH  065%=      5-min Rain = 0
KKN1 240752Z 23016G22KT 17/10 A298 RMK A01 T01660099  RH  065%=      5-min Rain = 0
KKN1 240753Z 23017KT 17/10 A298 RMK A01 T01670099  RH  064%=      5-min Rain = 0
KKN1 240754Z 23015KT 17/10 A298 RMK A01 T01680099  RH  064%=      5-min Rain = 0
KKN1 240755Z 23016G21KT 17/10 A298 RMK A01 T01670099  RH  064%=      5-min Rain = 0
KKN1 240756Z 23015KT 17/10 A298 RMK A01 T01670099  RH  064%=      5-min Rain = 0
KKN1 240757Z 23016G21KT 17/10 A298 RMK A01 T01660099  RH  064%=      5-min Rain = 0
KKN1 240758Z 23015KT 17/10 A298 RMK A01 T01660099  RH  064%=      5-min Rain = 0
KKN1 240759Z 23015KT 17/10 A298 RMK A01 T01660099  RH  064%=      5-min Rain = 0
KKN1 240800Z 23015G20KT 17/10 A2981 RMK A01 T01660099  RH  064%=      5-min Rain = 0
KKN1 240801Z 23014KT 17/10 A2981 RMK A01 T01660099  RH  065%=      5-min Rain = 0
KKN1 240802Z 23014KT 17/10 A2981 RMK A01 T01660098  RH  064%=      5-min Rain = 0
KKN1 240803Z 23014KT 17/10 A2981 RMK A01 T01660098  RH  064%=      5-min Rain = 0
KKN1 240804Z 23013KT 17/10 A2981 RMK A01 T01660098  RH  064%=      5-min Rain = 0
KKN1 240805Z 23015KT 17/10 A2981 RMK A01 T01650098  RH  065%=      5-min Rain = 0
KKN1 240806Z 23014KT 17/10 A2981 RMK A01 T01650098  RH  065%=      5-min Rain = 0
KKN1 240807Z 23014KT 17/10 A2981 RMK A01 T01650098  RH  065%=      5-min Rain = 0
KKN1 240808Z 23015KT 17/10 A2981 RMK A01 T01650098  RH  065%=      5-min Rain = 0
KKN1 240809Z 23014KT 16/10 A2981 RMK A01 T01640098  RH  065%=      5-min Rain = 0
KKN1 240810Z 23014KT 16/10 A2981 RMK A01 T01640098  RH  065%=      5-min Rain = 0
KKN1 240811Z 23015KT 16/10 A2981 RMK A01 T01630098  RH  065%=      5-min Rain = 0
KKN1 240812Z 23013KT 16/10 A2981 RMK A01 T01630098  RH  065%=      5-min Rain = 0
KKN1 240813Z 23017G22KT 16/10 A2981 RMK A01 T01630098  RH  065%=      5-min Rain = 0
KKN1 240814Z 23015KT 16/10 A2981 RMK A01 T01630098  RH  066%=      5-min Rain = 0
KKN1 240815Z 23015KT 16/10 A2981 RMK A01 T01620098  RH  066%=      5-min Rain = 0
KKN1 240816Z 23016KT 16/10 A2981 RMK A01 T01620098  RH  066%=      5-min Rain = 0
KKN1 240817Z 23015KT 16/10 A2981 RMK A01 T01620098  RH  066%=      5-min Rain = 0
KKN1 240818Z 23014KT 16/10 A2981 RMK A01 T01610098  RH  066%=      5-min Rain = 0
KKN1 240819Z 23016KT 16/10 A2981 RMK A01 T01600098  RH  066%=      5-min Rain = 0
KKN1 240820Z 23014G19KT 16/10 A2981 RMK A01 T01610098  RH  066%=      5-min Rain = 0
KKN1 240821Z 23014KT 16/10 A2981 RMK A01 T01600098  RH  066%=      5-min Rain = 0
KKN1 240822Z 23014KT 16/10 A2981 RMK A01 T01600097  RH  066%=      5-min Rain = 0
KKN1 240823Z 23014KT 16/10 A2981 RMK A01 T01590097  RH  066%=      5-min Rain = 0
KKN1 240824Z 23015KT 16/10 A2981 RMK A01 T01590097  RH  066%=      5-min Rain = 0
KKN1 240825Z 23014KT 16/10 A2981 RMK A01 T01590097  RH  067%=      5-min Rain = 0
KKN1 240826Z 23014KT 16/10 A2981 RMK A01 T01580096  RH  067%=      5-min Rain = 0
KKN1 240827Z 23015KT 16/10 A2981 RMK A01 T01570096  RH  067%=      5-min Rain = 0
KKN1 240828Z 23015KT 16/10 A2981 RMK A01 T01570096  RH  067%=      5-min Rain = 0
KKN1 240829Z 23014KT 16/10 A2981 RMK A01 T01570096  RH  067%=      5-min Rain = 0
KKN1 240830Z 23015KT 16/10 A2981 RMK A01 T01570096  RH  067%=      5-min Rain = 0
KKN1 240831Z 23015KT 16/10 A2981 RMK A01 T01570096  RH  067%=      5-min Rain = 0
KKN1 240832Z 23015G20KT 16/10 A2981 RMK A01 T01560096  RH  067%=      5-min Rain = 0
KKN1 240833Z 23016KT 16/10 A2981 RMK A01 T01560096  RH  067%=      5-min Rain = 0
KKN1 240834Z 23015KT 16/10 A2981 RMK A01 T01570095  RH  067%=      5-min Rain = 0
KKN1 240835Z 23015KT 16/10 A2981 RMK A01 T01570095  RH  067%=      5-min Rain = 0
KKN1 240836Z 23014KT 16/10 A2981 RMK A01 T01570095  RH  067%=      5-min Rain = 0
KKN1 240837Z 23014KT 16/10 A2981 RMK A01 T01570095  RH  067%=      5-min Rain = 0
KKN1 240838Z 23015KT 16/10 A2981 RMK A01 T01560095  RH  067%=      5-min Rain = 0
KKN1 240839Z 23014KT 16/10 A2981 RMK A01 T01560095  RH  067%=      5-min Rain = 0
KKN1 240840Z 23015KT 16/10 A2981 RMK A01 T01560095  RH  067%=      5-min Rain = 0
KKN1 240841Z 23016KT 16/10 A2981 RMK A01 T01550095  RH  067%=      5-min Rain = 0
KKN1 240842Z 23015KT 16/10 A2981 RMK A01 T01560095  RH  067%=      5-min Rain = 0
KKN1 240843Z 23014KT 16/10 A2981 RMK A01 T01560095  RH  067%=      5-min Rain = 0
KKN1 240844Z 24016KT 16/10 A2982 RMK A01 T01560095  RH  067%=      5-min Rain = 0
KKN1 240845Z 24015KT 16/10 A2982 RMK A01 T01570095  RH  067%=      5-min Rain = 0
KKN1 240846Z 23015KT 16/10 A2982 RMK A01 T01570095  RH  066%=      5-min Rain = 0
KKN1 240847Z 23016KT 16/10 A2982 RMK A01 T01580095  RH  066%=      5-min Rain = 0
KKN1 240848Z 23016KT 16/10 A2981 RMK A01 T01580095  RH  066%=      5-min Rain = 0
KKN1 240849Z 23015KT 16/10 A2981 RMK A01 T01580095  RH  066%=      5-min Rain = 0
KKN1 240850Z 23015KT 16/10 A2981 RMK A01 T01580095  RH  066%=      5-min Rain = 0
KKN1 240851Z 23013KT 16/10 A2981 RMK A01 T01580095  RH  066%=      5-min Rain = 0
KKN1 240852Z 23013KT 16/10 A2982 RMK A01 T01560095  RH  067%=      5-min Rain = 0
KKN1 240853Z 24011KT 16/10 A2982 RMK A01 T01550095  RH  067%=      5-min Rain = 0
KKN1 240854Z 25010KT 16/10 A2982 RMK A01 T01550095  RH  067%=      5-min Rain = 0
KKN1 240855Z 25010KT 15/10 A2982 RMK A01 T01540095  RH  068%=      5-min Rain = 0
KKN1 240856Z 24011KT 15/09 A2982 RMK A01 T01530094  RH  068%=      5-min Rain = 0
KKN1 240857Z 24013G18KT 15/09 A2982 RMK A01 T01530094  RH  068%=      5-min Rain = 0
KKN1 240858Z 24013G18KT 15/09 A2983 RMK A01 T01530094  RH  068%=      5-min Rain = 0
KKN1 240859Z 24013G18KT 15/09 A2983 RMK A01 T01540094  RH  068%=      5-min Rain = 0
KKN1 240900Z 25012KT 16/09 A2983 RMK A01 T01550094  RH  067%=      5-min Rain = 0
KKN1 240901Z 25009KT 16/09 A2983 RMK A01 T01550094  RH  067%=      5-min Rain = 0
KKN1 240902Z 27010KT 15/09 A2984 RMK A01 T01530093  RH  068%=      5-min Rain = 0
KKN1 240903Z 28011KT 15/09 A2984 RMK A01 T01490092  RH  069%=      5-min Rain = 0
KKN1 240904Z 30010KT 14/09 A2984 RMK A01 T01430090  RH  070%=      5-min Rain = 0
KKN1 240905Z 29011KT 14/09 A2984 RMK A01 T01380088  RH  072%=      5-min Rain = 0
KKN1 240906Z 29009KT 13/09 A2984 RMK A01 T01340088  RH  074%=      5-min Rain = 0
KKN1 240907Z 28008KT 13/09 A2984 RMK A01 T01320089  RH  075%=      5-min Rain = 0
KKN1 240908Z 28009KT 13/09 A2984 RMK A01 T01310089  RH  076%=      5-min Rain = 0
KKN1 240909Z 28009KT 13/09 A2984 RMK A01 T01310089  RH  075%=      5-min Rain = 0
KKN1 240910Z 28010KT 13/09 A2984 RMK A01 T01300087  RH  075%=      5-min Rain = 0
KKN1 240911Z 28011KT 13/09 A2984 RMK A01 T01280088  RH  076%=      5-min Rain = 0
KKN1 240912Z 28012KT 13/09 A2984 RMK A01 T01290089  RH  077%=      5-min Rain = 0
KKN1 240913Z 27012KT 13/09 A2984 RMK A01 T01320091  RH  076%=      5-min Rain = 0
KKN1 240914Z 25014G25KT 14/09 A2984 RMK A01 T01360091  RH  074%=      5-min Rain = 0
KKN1 240915Z 25013G19KT 14/09 A2984 RMK A01 T01420092  RH  072%=      5-min Rain = 0
KKN1 240916Z 27017G22KT 15/09 A2985 RMK A01 T01470092  RH  070%=      5-min Rain = 0
KKN1 240917Z 28017G22KT 15/09 A2985 RMK A01 T01490091  RH  069%=      5-min Rain = 0
KKN1 240918Z 29014KT 15/09 A2985 RMK A01 T01490091  RH  068%=      5-min Rain = 0
KKN1 240919Z 28014KT 15/09 A2986 RMK A01 T01480091  RH  068%=      5-min Rain = 0
KKN1 240920Z 28014KT 15/09 A2985 RMK A01 T01460090  RH  069%=      5-min Rain = 0
KKN1 240921Z 27013KT 15/09 A2985 RMK A01 T01450090  RH  070%=      5-min Rain = 0
KKN1 240922Z 28015G21KT 14/09 A2985 RMK A01 T01440087  RH  068%=      5-min Rain = 0
KKN1 240923Z 27014KT 15/09 A2985 RMK A01 T01460087  RH  068%=      5-min Rain = 0
KKN1 240924Z 27014KT 15/09 A2985 RMK A01 T01470087  RH  067%=      5-min Rain = 0
KKN1 240925Z 27015KT 15/09 A2985 RMK A01 T01470085  RH  066%=      5-min Rain = 0
KKN1 240926Z 27014KT 15/08 A2985 RMK A01 T01470083  RH  065%=      5-min Rain = 0
KKN1 240927Z 26013KT 15/08 A2985 RMK A01 T01480082  RH  064%=      5-min Rain = 0
KKN1 240928Z 26013KT 15/08 A2985 RMK A01 T01480080  RH  064%=      5-min Rain = 0
KKN1 240929Z 26012KT 15/08 A2985 RMK A01 T01480079  RH  063%=      5-min Rain = 0
KKN1 240930Z 26014G19KT 15/08 A2985 RMK A01 T01480077  RH  062%=      5-min Rain = 0
KKN1 240931Z 26013KT 15/08 A2985 RMK A01 T01480076  RH  062%=      5-min Rain = 0
KKN1 240932Z 26014KT 15/07 A2985 RMK A01 T01480074  RH  061%=      5-min Rain = 0
KKN1 240933Z 27012KT 15/07 A2986 RMK A01 T01490072  RH  060%=      5-min Rain = 0
KKN1 240934Z 27013KT 15/07 A2986 RMK A01 T01490072  RH  060%=      5-min Rain = 0
KKN1 240935Z 27013G18KT 15/07 A2986 RMK A01 T01480072  RH  060%=      5-min Rain = 0
KKN1 240936Z 26013KT 15/07 A2986 RMK A01 T01480072  RH  060%=      5-min Rain = 0
KKN1 240937Z 27012KT 15/07 A2986 RMK A01 T01470072  RH  060%=      5-min Rain = 0
KKN1 240938Z 27014KT 15/07 A2986 RMK A01 T01460071  RH  060%=      5-min Rain = 0
KKN1 240939Z 27013KT 15/07 A2986 RMK A01 T01460070  RH  060%=      5-min Rain = 0
KKN1 240940Z 27012KT 15/07 A2986 RMK A01 T01450070  RH  060%=      5-min Rain = 0
KKN1 240941Z 27014G19KT 14/07 A2986 RMK A01 T01440068  RH  060%=      5-min Rain = 0
KKN1 240942Z 27014KT 14/06 A2987 RMK A01 T01440063  RH  058%=      5-min Rain = 0
KKN1 240943Z 28015G20KT 15/06 A2987 RMK A01 T01450062  RH  057%=      5-min Rain = 0
KKN1 240944Z 28014KT 14/06 A2987 RMK A01 T01440061  RH  057%=      5-min Rain = 0
KKN1 240945Z 28016KT 14/06 A2987 RMK A01 T01420058  RH  057%=      5-min Rain = 0
KKN1 240946Z 29016KT 14/05 A2987 RMK A01 T01420053  RH  055%=      5-min Rain = 0
KKN1 240947Z 29014KT 14/05 A2987 RMK A01 T01420050  RH  054%=      5-min Rain = 0
KKN1 240948Z 29014G19KT 14/05 A2987 RMK A01 T01400050  RH  055%=      5-min Rain = 0
KKN1 240949Z 28016G23KT 14/05 A2987 RMK A01 T01390048  RH  054%=      5-min Rain = 0
KKN1 240950Z 29015G20KT 14/04 A2987 RMK A01 T01390040  RH  051%=      5-min Rain = 0
KKN1 240951Z 29017G22KT 14/03 A2987 RMK A01 T01390032  RH  048%=      5-min Rain = 0
KKN1 240952Z 29018G23KT 14/02 A2987 RMK A01 T01400017  RH  043%=      5-min Rain = 0
KKN1 240953Z 30014KT 14/02 A2987 RMK A01 T01420016  RH  043%=      5-min Rain = 0
KKN1 240954Z 30014KT 14/02 A2987 RMK A01 T01400016  RH  043%=      5-min Rain = 0
KKN1 240955Z 30013G19KT 14/02 A2988 RMK A01 T01380015  RH  043%=      5-min Rain = 0
KKN1 240956Z 30015KT 14/01 A2988 RMK A01 T01370012  RH  043%=      5-min Rain = 0
KKN1 240957Z 30016KT 14/01 A2988 RMK A01 T01370007  RH  041%=      5-min Rain = 0
KKN1 240958Z 30014KT 14/00 A2988 RMK A01 T01380004  RH  040%=      5-min Rain = 0
KKN1 240959Z 30015KT 14/00 A2988 RMK A01 T01390001  RH  039%=      5-min Rain = 0
KKN1 241000Z 30013KT 14/M00 A2988 RMK A01 T01391002  RH  038%=      5-min Rain = 0
KKN1 241001Z 30014G20KT 14/M00 A2988 RMK A01 T01381001  RH  038%=      5-min Rain = 0
KKN1 241002Z 30015G20KT 14/M01 A2988 RMK A01 T01371005  RH  037%=      5-min Rain = 0
KKN1 241003Z 31014KT 14/M01 A2988 RMK A01 T01371008  RH  037%=      5-min Rain = 0
KKN1 241004Z 31016G22KT 14/M01 A2989 RMK A01 T01371007  RH  037%=      5-min Rain = 0
KKN1 241005Z 31017G22KT 14/M01 A2989 RMK A01 T01371012  RH  036%=      5-min Rain = 0
KKN1 241006Z 31015KT 14/M01 A2989 RMK A01 T01381013  RH  035%=      5-min Rain = 0
KKN1 241007Z 31012KT 14/M01 A2989 RMK A01 T01391012  RH  035%=      5-min Rain = 0
KKN1 241008Z 31013KT 14/M01 A2989 RMK A01 T01361010  RH  036%=      5-min Rain = 0
KKN1 241009Z 31011KT 14/M01 A2989 RMK A01 T01351011  RH  036%=      5-min Rain = 0
KKN1 241010Z 30012G19KT 13/M01 A2989 RMK A01 T01331009  RH  037%=      5-min Rain = 0
KKN1 241011Z 31014KT 13/M01 A2989 RMK A01 T01321013  RH  037%=      5-min Rain = 0
KKN1 241012Z 31012KT 13/M01 A2989 RMK A01 T01321012  RH  037%=      5-min Rain = 0
KKN1 241013Z 31011KT 13/M01 A2989 RMK A01 T01311013  RH  037%=      5-min Rain = 0
KKN1 241014Z 32012KT 13/M01 A299 RMK A01 T01311013  RH  037%=      5-min Rain = 0
KKN1 241015Z 32014G19KT 13/M02 A2989 RMK A01 T01301015  RH  037%=      5-min Rain = 0
KKN1 241016Z 32013KT 13/M02 A2989 RMK A01 T01301016  RH  036%=      5-min Rain = 0
KKN1 241017Z 32015KT 13/M02 A299 RMK A01 T01311015  RH  036%=      5-min Rain = 0
KKN1 241018Z 32013KT 13/M02 A299 RMK A01 T01301015  RH  037%=      5-min Rain = 0
KKN1 241019Z 32012G18KT 13/M01 A299 RMK A01 T01291014  RH  037%=      5-min Rain = 0
KKN1 241020Z 33014KT 13/M01 A299 RMK A01 T01271014  RH  038%=      5-min Rain = 0
KKN1 241021Z 32013KT 13/M01 A299 RMK A01 T01261014  RH  038%=      5-min Rain = 0
KKN1 241022Z 33016G22KT 13/M01 A299 RMK A01 T01261014  RH  038%=      5-min Rain = 0
KKN1 241023Z 33013KT 13/M01 A299 RMK A01 T01261014  RH  038%=      5-min Rain = 0
KKN1 241024Z 33013KT 13/M01 A299 RMK A01 T01261014  RH  038%=      5-min Rain = 0
KKN1 241025Z 33012KT 13/M01 A299 RMK A01 T01251013  RH  038%=      5-min Rain = 0
KKN1 241026Z 33011KT 12/M01 A299 RMK A01 T01241013  RH  039%=      5-min Rain = 0
KKN1 241027Z 33010KT 12/M01 A299 RMK A01 T01231013  RH  039%=      5-min Rain = 0
KKN1 241028Z 33015KT 12/M01 A299 RMK A01 T01221014  RH  039%=      5-min Rain = 0
KKN1 241029Z 33012KT 12/M01 A299 RMK A01 T01231014  RH  039%=      5-min Rain = 0
KKN1 241030Z 33010KT 12/M01 A2991 RMK A01 T01231013  RH  039%=      5-min Rain = 0
KKN1 241031Z 33012KT 12/M01 A2991 RMK A01 T01221013  RH  039%=      5-min Rain = 0
KKN1 241032Z 33013KT 12/M01 A2991 RMK A01 T01221013  RH  039%=      5-min Rain = 0
KKN1 241033Z 34012KT 12/M01 A2991 RMK A01 T01221013  RH  039%=      5-min Rain = 0
KKN1 241034Z 34012G19KT 12/M01 A2991 RMK A01 T01221013  RH  039%=      5-min Rain = 0
KKN1 241035Z 34012KT 12/M01 A2991 RMK A01 T01211013  RH  039%=      5-min Rain = 0
KKN1 241036Z 34010KT 12/M01 A2991 RMK A01 T01211013  RH  039%=      5-min Rain = 0
KKN1 241037Z 34011KT 12/M01 A2991 RMK A01 T01201013  RH  040%=      5-min Rain = 0
KKN1 241038Z 34012KT 12/M01 A2991 RMK A01 T01191012  RH  040%=      5-min Rain = 0
KKN1 241039Z 34011KT 12/M01 A2991 RMK A01 T01191013  RH  040%=      5-min Rain = 0
KKN1 241040Z 34011KT 12/M01 A2991 RMK A01 T01191013  RH  040%=      5-min Rain = 0
KKN1 241041Z 34010KT 12/M01 A2991 RMK A01 T01191013  RH  040%=      5-min Rain = 0
KKN1 241042Z 33011KT 12/M01 A2991 RMK A01 T01181013  RH  040%=      5-min Rain = 0
KKN1 241043Z 33011KT 12/M01 A2991 RMK A01 T01171013  RH  040%=      5-min Rain = 0
KKN1 241044Z 33010KT 12/M01 A2991 RMK A01 T01171012  RH  041%=      5-min Rain = 0
KKN1 241045Z 33012KT 12/M01 A2991 RMK A01 T01161012  RH  041%=      5-min Rain = 0
KKN1 241046Z 33011KT 12/M01 A2991 RMK A01 T01161013  RH  041%=      5-min Rain = 0
KKN1 241047Z 33011KT 12/M01 A2991 RMK A01 T01151012  RH  041%=      5-min Rain = 0
KKN1 241048Z 33012KT 11/M01 A2991 RMK A01 T01141013  RH  041%=      5-min Rain = 0
KKN1 241049Z 33011KT 11/M01 A2991 RMK A01 T01141013  RH  041%=      5-min Rain = 0
KKN1 241050Z 33011KT 11/M01 A2991 RMK A01 T01141013  RH  041%=      5-min Rain = 0
KKN1 241051Z 33011KT 11/M01 A2991 RMK A01 T01141012  RH  042%=      5-min Rain = 0
KKN1 241052Z 33010KT 11/M01 A2992 RMK A01 T01131013  RH  042%=      5-min Rain = 0
KKN1 241053Z 33009KT 11/M01 A2992 RMK A01 T01121013  RH  042%=      5-min Rain = 0
KKN1 241054Z 33010KT 11/M01 A2992 RMK A01 T01121013  RH  042%=      5-min Rain = 0
KKN1 241055Z 33010KT 11/M01 A2992 RMK A01 T01111013  RH  042%=      5-min Rain = 0
KKN1 241056Z 33009KT 11/M01 A2992 RMK A01 T01111013  RH  042%=      5-min Rain = 0
KKN1 241057Z 33010KT 11/M01 A2992 RMK A01 T01111014  RH  042%=      5-min Rain = 0
KKN1 241058Z 33009KT 11/M01 A2992 RMK A01 T01111013  RH  042%=      5-min Rain = 0
KKN1 241059Z 33009G14KT 11/M01 A2992 RMK A01 T01111014  RH  042%=      5-min Rain = 0
KKN1 241100Z 33010KT 11/M01 A2992 RMK A01 T01101014  RH  042%=      5-min Rain = 0
KKN1 241101Z 33009KT 11/M01 A2992 RMK A01 T01101014  RH  042%=      5-min Rain = 0
KKN1 241102Z 33008G14KT 11/M01 A2992 RMK A01 T01101014  RH  042%=      5-min Rain = 0
KKN1 241103Z 33009KT 11/M01 A2992 RMK A01 T01081014  RH  043%=      5-min Rain = 0
KKN1 241104Z 33009KT 11/M01 A2992 RMK A01 T01071014  RH  043%=      5-min Rain = 0
KKN1 241105Z 32010KT 11/M01 A2992 RMK A01 T01071014  RH  043%=      5-min Rain = 0
KKN1 241106Z 33010KT 11/M01 A2992 RMK A01 T01071014  RH  043%=      5-min Rain = 0
KKN1 241107Z 33010KT 11/M01 A2992 RMK A01 T01071014  RH  043%=      5-min Rain = 0
KKN1 241108Z 33010KT 11/M01 A2993 RMK A01 T01071014  RH  043%=      5-min Rain = 0
KKN1 241109Z 33011G16KT 11/M01 A2993 RMK A01 T01071014  RH  043%=      5-min Rain = 0
KKN1 241110Z 33010KT 11/M02 A2993 RMK A01 T01081015  RH  042%=      5-min Rain = 0
KKN1 241111Z 33012G17KT 11/M02 A2993 RMK A01 T01081015  RH  042%=      5-min Rain = 0
KKN1 241112Z 33011KT 11/M02 A2993 RMK A01 T01081015  RH  042%=      5-min Rain = 0
KKN1 241113Z 33012KT 11/M02 A2993 RMK A01 T01091015  RH  042%=      5-min Rain = 0
KKN1 241114Z 33011KT 11/M02 A2993 RMK A01 T01091016  RH  042%=      5-min Rain = 0
KKN1 241115Z 33010KT 11/M02 A2993 RMK A01 T01091015  RH  042%=      5-min Rain = 0
KKN1 241116Z 33012KT 11/M02 A2993 RMK A01 T01081015  RH  042%=      5-min Rain = 0
KKN1 241117Z 33011KT 11/M02 A2993 RMK A01 T01081015  RH  042%=      5-min Rain = 0
KKN1 241118Z 33013KT 11/M02 A2992 RMK A01 T01071015  RH  042%=      5-min Rain = 0
KKN1 241119Z 33012KT 11/M02 A2992 RMK A01 T01071016  RH  042%=      5-min Rain = 0
KKN1 241120Z 33012G17KT 11/M02 A2993 RMK A01 T01071015  RH  042%=      5-min Rain = 0
KKN1 241121Z 33014KT 11/M02 A2993 RMK A01 T01071015  RH  043%=      5-min Rain = 0
KKN1 241122Z 33013G18KT 11/M02 A2993 RMK A01 T01071016  RH  042%=      5-min Rain = 0
KKN1 241123Z 33013KT 11/M02 A2993 RMK A01 T01071016  RH  042%=      5-min Rain = 0
KKN1 241124Z 33013G18KT 11/M02 A2993 RMK A01 T01071016  RH  042%=      5-min Rain = 0
KKN1 241125Z 33013KT 11/M02 A2993 RMK A01 T01071016  RH  042%=      5-min Rain = 0
KKN1 241126Z 33013KT 11/M02 A2993 RMK A01 T01071016  RH  042%=      5-min Rain = 0
KKN1 241127Z 33013KT 11/M02 A2993 RMK A01 T01071016  RH  042%=      5-min Rain = 0
KKN1 241128Z 33011KT 11/M02 A2993 RMK A01 T01071016  RH  042%=      5-min Rain = 0
KKN1 241129Z 33012KT 11/M02 A2993 RMK A01 T01071016  RH  042%=      5-min Rain = 0
KKN1 241130Z 33013KT 11/M02 A2993 RMK A01 T01061016  RH  042%=      5-min Rain = 0
KKN1 241131Z 33012G17KT 11/M02 A2993 RMK A01 T01061017  RH  042%=      5-min Rain = 0
KKN1 241132Z 34014G19KT 11/M02 A2993 RMK A01 T01061016  RH  042%=      5-min Rain = 0
KKN1 241133Z 33012KT 11/M02 A2994 RMK A01 T01061017  RH  042%=      5-min Rain = 0
KKN1 241134Z 33011KT 11/M02 A2994 RMK A01 T01061017  RH  042%=      5-min Rain = 0
KKN1 241135Z 34012KT 11/M02 A2994 RMK A01 T01061017  RH  042%=      5-min Rain = 0
KKN1 241136Z 33011KT 11/M02 A2994 RMK A01 T01061017  RH  042%=      5-min Rain = 0
KKN1 241137Z 33012G19KT 11/M02 A2994 RMK A01 T01061017  RH  042%=      5-min Rain = 0
KKN1 241138Z 33012KT 11/M02 A2994 RMK A01 T01061017  RH  042%=      5-min Rain = 0
KKN1 241139Z 34011KT 11/M02 A2994 RMK A01 T01051017  RH  042%=      5-min Rain = 0
KKN1 241140Z 34011KT 11/M02 A2994 RMK A01 T01051017  RH  043%=      5-min Rain = 0
KKN1 241141Z 34010G15KT 10/M02 A2994 RMK A01 T01041017  RH  043%=      5-min Rain = 0
KKN1 241142Z 33012KT 10/M02 A2994 RMK A01 T01041017  RH  043%=      5-min Rain = 0
KKN1 241143Z 33010KT 10/M02 A2994 RMK A01 T01041018  RH  043%=      5-min Rain = 0
KKN1 241144Z 33012KT 10/M02 A2994 RMK A01 T01041017  RH  043%=      5-min Rain = 0
KKN1 241145Z 33012KT 10/M02 A2994 RMK A01 T01031017  RH  043%=      5-min Rain = 0
KKN1 241146Z 33012KT 10/M02 A2994 RMK A01 T01031017  RH  043%=      5-min Rain = 0
KKN1 241147Z 33011KT 10/M02 A2995 RMK A01 T01041017  RH  043%=      5-min Rain = 0
KKN1 241148Z 33010KT 10/M02 A2995 RMK A01 T01031017  RH  043%=      5-min Rain = 0
KKN1 241149Z 33012G18KT 10/M02 A2995 RMK A01 T01031017  RH  043%=      5-min Rain = 0
KKN1 241150Z 33011KT 10/M02 A2995 RMK A01 T01031018  RH  043%=      5-min Rain = 0
KKN1 241151Z 33012KT 10/M02 A2995 RMK A01 T01031018  RH  043%=      5-min Rain = 0
KKN1 241152Z 33012KT 10/M02 A2996 RMK A01 T01031018  RH  043%=      5-min Rain = 0
KKN1 241153Z 33012KT 10/M02 A2996 RMK A01 T01031018  RH  043%=      5-min Rain = 0
KKN1 241154Z 33012G19KT 10/M02 A2996 RMK A01 T01031018  RH  043%=      5-min Rain = 0
KKN1 241155Z 33012G19KT 10/M02 A2996 RMK A01 T01031018  RH  043%=      5-min Rain = 0
KKN1 241156Z 33010KT 10/M02 A2996 RMK A01 T01031018  RH  043%=      5-min Rain = 0
KKN1 241157Z 33012KT 10/M02 A2996 RMK A01 T01021018  RH  043%=      5-min Rain = 0
KKN1 241158Z 33012KT 10/M02 A2996 RMK A01 T01021018  RH  043%=      5-min Rain = 0
KKN1 241159Z 33012KT 10/M02 A2996 RMK A01 T01021018  RH  043%=      5-min Rain = 0
KKN1 241200Z 33012KT 10/M02 A2996 RMK A01 T01021018  RH  043%=      5-min Rain = 0
KKN1 241201Z 33012KT 10/M02 A2996 RMK A01 T01021018  RH  043%=      5-min Rain = 0
KKN1 241202Z 33011KT 10/M02 A2996 RMK A01 T01021018  RH  043%=      5-min Rain = 0
KKN1 241203Z 33011G16KT 10/M02 A2996 RMK A01 T01011018  RH  043%=      5-min Rain = 0
KKN1 241204Z 33011KT 10/M02 A2996 RMK A01 T01011018  RH  044%=      5-min Rain = 0
KKN1 241205Z 33010KT 10/M02 A2997 RMK A01 T01001018  RH  044%=      5-min Rain = 0
KKN1 241206Z 33010G15KT 10/M02 A2997 RMK A01 T01001018  RH  044%=      5-min Rain = 0
KKN1 241207Z 33011G16KT 10/M02 A2997 RMK A01 T00991018  RH  044%=      5-min Rain = 0
KKN1 241208Z 32010KT 10/M02 A2997 RMK A01 T00991018  RH  044%=      5-min Rain = 0
KKN1 241209Z 33010KT 10/M02 A2997 RMK A01 T00981018  RH  044%=      5-min Rain = 0
KKN1 241210Z 33009KT 10/M02 A2997 RMK A01 T00971017  RH  045%=      5-min Rain = 0
KKN1 241211Z 32010KT 10/M02 A2998 RMK A01 T00961018  RH  045%=      5-min Rain = 0
KKN1 241212Z 33010KT 10/M02 A2998 RMK A01 T00961018  RH  045%=      5-min Rain = 0
KKN1 241213Z 32010KT 10/M02 A2998 RMK A01 T00961018  RH  045%=      5-min Rain = 0
KKN1 241214Z 33012G18KT 10/M02 A2998 RMK A01 T00971018  RH  045%=      5-min Rain = 0
KKN1 241215Z 33010KT 10/M02 A2998 RMK A01 T00971018  RH  045%=      5-min Rain = 0
KKN1 241216Z 33011KT 10/M02 A2998 RMK A01 T00981018  RH  044%=      5-min Rain = 0
KKN1 241217Z 33009KT 10/M02 A2998 RMK A01 T00981018  RH  044%=      5-min Rain = 0
KKN1 241218Z 33009KT 10/M02 A2998 RMK A01 T00981018  RH  044%=      5-min Rain = 0
KKN1 241219Z 33010KT 10/M02 A2998 RMK A01 T00971017  RH  045%=      5-min Rain = 0
KKN1 241220Z 33010KT 10/M02 A2998 RMK A01 T00971017  RH  045%=      5-min Rain = 0
KKN1 241221Z 33010KT 10/M02 A2999 RMK A01 T00961017  RH  045%=      5-min Rain = 0
KKN1 241222Z 33010KT 10/M02 A2999 RMK A01 T00951017  RH  045%=      5-min Rain = 0
KKN1 241223Z 33010KT 10/M02 A2999 RMK A01 T00951017  RH  045%=      5-min Rain = 0
KKN1 241224Z 33010KT 10/M02 A2999 RMK A01 T00961017  RH  045%=      5-min Rain = 0
KKN1 241225Z 33011KT 10/M02 A2999 RMK A01 T00961017  RH  045%=      5-min Rain = 0
KKN1 241226Z 33010KT 10/M02 A2999 RMK A01 T00961018  RH  045%=      5-min Rain = 0
KKN1 241227Z 33010KT 10/M02 A2999 RMK A01 T00961017  RH  045%=      5-min Rain = 0
KKN1 241228Z 33009KT 10/M02 A2999 RMK A01 T00951017  RH  046%=      5-min Rain = 0
KKN1 241229Z 33009KT 09/M02 A2999 RMK A01 T00941017  RH  046%=      5-min Rain = 0
KKN1 241230Z 33010KT 09/M02 A2999 RMK A01 T00931017  RH  046%=      5-min Rain = 0
KKN1 241231Z 33010KT 09/M02 A30 RMK A01 T00931016  RH  046%=      5-min Rain = 0
KKN1 241232Z 33010KT 09/M02 A30 RMK A01 T00921017  RH  046%=      5-min Rain = 0
KKN1 241233Z 33010KT 09/M02 A30 RMK A01 T00921017  RH  046%=      5-min Rain = 0
KKN1 241234Z 33010KT 09/M02 A30 RMK A01 T00931017  RH  046%=      5-min Rain = 0
KKN1 241235Z 33011KT 09/M02 A30 RMK A01 T00931017  RH  046%=      5-min Rain = 0
KKN1 241236Z 33011KT 09/M02 A30 RMK A01 T00931017  RH  046%=      5-min Rain = 0
KKN1 241237Z 33011G16KT 09/M02 A30 RMK A01 T00931017  RH  046%=      5-min Rain = 0
KKN1 241238Z 33011KT 09/M02 A30 RMK A01 T00931017  RH  046%=      5-min Rain = 0
KKN1 241239Z 33011KT 09/M02 A30 RMK A01 T00931017  RH  046%=      5-min Rain = 0
KKN1 241240Z 33012KT 09/M02 A30 RMK A01 T00931017  RH  046%=      5-min Rain = 0
KKN1 241241Z 33010KT 09/M02 A30 RMK A01 T00931016  RH  046%=      5-min Rain = 0
KKN1 241242Z 33011KT 09/M02 A30 RMK A01 T00921016  RH  047%=      5-min Rain = 0
KKN1 241243Z 33010KT 09/M02 A30 RMK A01 T00921016  RH  047%=      5-min Rain = 0
KKN1 241244Z 33010KT 09/M02 A30 RMK A01 T00921016  RH  047%=      5-min Rain = 0
KKN1 241245Z 33009KT 09/M02 A3001 RMK A01 T00911016  RH  047%=      5-min Rain = 0
KKN1 241246Z 33008KT 09/M02 A3001 RMK A01 T00901016  RH  047%=      5-min Rain = 0
KKN1 241247Z 33009KT 09/M02 A3001 RMK A01 T00901016  RH  048%=      5-min Rain = 0
KKN1 241248Z 33009KT 09/M02 A3001 RMK A01 T00901016  RH  048%=      5-min Rain = 0
KKN1 241249Z 33009KT 09/M02 A3001 RMK A01 T00891016  RH  048%=      5-min Rain = 0
KKN1 241250Z 33009KT 09/M02 A3001 RMK A01 T00901016  RH  048%=      5-min Rain = 0
KKN1 241251Z 33009KT 09/M02 A3001 RMK A01 T00891016  RH  048%=      5-min Rain = 0
KKN1 241252Z 33010KT 09/M02 A3001 RMK A01 T00891016  RH  048%=      5-min Rain = 0
KKN1 241253Z 33010KT 09/M02 A3002 RMK A01 T00901015  RH  048%=      5-min Rain = 0
KKN1 241254Z 33009KT 09/M02 A3002 RMK A01 T00901016  RH  047%=      5-min Rain = 0
KKN1 241255Z 34009KT 09/M02 A3002 RMK A01 T00901015  RH  048%=      5-min Rain = 0
KKN1 241256Z 34010KT 09/M02 A3001 RMK A01 T00901016  RH  047%=      5-min Rain = 0
KKN1 241257Z 34010KT 09/M02 A3002 RMK A01 T00911015  RH  047%=      5-min Rain = 0
KKN1 241258Z 34009KT 09/M02 A3002 RMK A01 T00901015  RH  047%=      5-min Rain = 0
KKN1 241259Z 35008KT 09/M02 A3002 RMK A01 T00901015  RH  048%=      5-min Rain = 0
KKN1 241300Z 34010KT 09/M01 A3002 RMK A01 T00891014  RH  048%=      5-min Rain = 0
KKN1 241301Z 35010KT 09/M01 A3002 RMK A01 T00891014  RH  048%=      5-min Rain = 0
KKN1 241302Z 34010KT 09/M01 A3002 RMK A01 T00891014  RH  048%=      5-min Rain = 0
KKN1 241303Z 35009KT 09/M01 A3002 RMK A01 T00901014  RH  048%=      5-min Rain = 0
KKN1 241304Z 35009KT 09/M01 A3002 RMK A01 T00901014  RH  048%=      5-min Rain = 0
KKN1 241305Z 34009KT 09/M01 A3002 RMK A01 T00901014  RH  048%=      5-min Rain = 0
KKN1 241306Z 35009KT 09/M01 A3002 RMK A01 T00901014  RH  048%=      5-min Rain = 0
KKN1 241307Z 34010KT 09/M01 A3002 RMK A01 T00891013  RH  049%=      5-min Rain = 0
KKN1 241308Z 34010KT 09/M01 A3002 RMK A01 T00881014  RH  049%=      5-min Rain = 0
KKN1 241309Z 35008KT 09/M01 A3003 RMK A01 T00901013  RH  049%=      5-min Rain = 0
KKN1 241310Z 34011KT 09/M01 A3003 RMK A01 T00881013  RH  049%=      5-min Rain = 0
KKN1 241311Z 34009KT 09/M01 A3003 RMK A01 T00881013  RH  049%=      5-min Rain = 0
KKN1 241312Z 34010KT 09/M01 A3003 RMK A01 T00881012  RH  049%=      5-min Rain = 0
KKN1 241313Z 34010KT 09/M01 A3003 RMK A01 T00881012  RH  049%=      5-min Rain = 0
KKN1 241314Z 34010KT 09/M01 A3003 RMK A01 T00881012  RH  049%=      5-min Rain = 0
KKN1 241315Z 34009KT 09/M01 A3003 RMK A01 T00881012  RH  050%=      5-min Rain = 0
KKN1 241316Z 34011KT 09/M01 A3003 RMK A01 T00871012  RH  050%=      5-min Rain = 0
KKN1 241317Z 34010KT 09/M01 A3003 RMK A01 T00871012  RH  050%=      5-min Rain = 0
KKN1 241318Z 34010KT 09/M01 A3003 RMK A01 T00881012  RH  049%=      5-min Rain = 0
KKN1 241319Z 34011KT 09/M01 A3003 RMK A01 T00891012  RH  049%=      5-min Rain = 0
KKN1 241320Z 33010KT 09/M01 A3003 RMK A01 T00891012  RH  049%=      5-min Rain = 0
KKN1 241321Z 34009KT 09/M01 A3003 RMK A01 T00891012  RH  049%=      5-min Rain = 0
KKN1 241322Z 34010KT 09/M01 A3004 RMK A01 T00891012  RH  049%=      5-min Rain = 0
KKN1 241323Z 33009KT 09/M01 A3004 RMK A01 T00891012  RH  049%=      5-min Rain = 0
KKN1 241324Z 34011KT 09/M01 A3004 RMK A01 T00891012  RH  049%=      5-min Rain = 0
KKN1 241325Z 33008KT 09/M01 A3004 RMK A01 T00891012  RH  049%=      5-min Rain = 0
KKN1 241326Z 34008KT 09/M01 A3004 RMK A01 T00881011  RH  050%=      5-min Rain = 0
KKN1 241327Z 33009KT 09/M01 A3004 RMK A01 T00871011  RH  050%=      5-min Rain = 0
KKN1 241328Z 34010KT 09/M01 A3004 RMK A01 T00871011  RH  050%=      5-min Rain = 0
KKN1 241329Z 34010KT 09/M01 A3004 RMK A01 T00871011  RH  050%=      5-min Rain = 0
KKN1 241330Z 34009KT 09/M01 A3005 RMK A01 T00881011  RH  050%=      5-min Rain = 0
KKN1 241331Z 34008KT 09/M01 A3005 RMK A01 T00881011  RH  050%=      5-min Rain = 0
KKN1 241332Z 34009KT 09/M01 A3005 RMK A01 T00881011  RH  050%=      5-min Rain = 0
KKN1 241333Z 34009KT 09/M01 A3005 RMK A01 T00881010  RH  050%=      5-min Rain = 0
KKN1 241334Z 34009KT 09/M01 A3005 RMK A01 T00871010  RH  050%=      5-min Rain = 0
KKN1 241335Z 34011KT 09/M01 A3005 RMK A01 T00871011  RH  050%=      5-min Rain = 0
KKN1 241336Z 34009KT 09/M01 A3005 RMK A01 T00891011  RH  050%=      5-min Rain = 0
KKN1 241337Z 34008KT 09/M01 A3005 RMK A01 T00891010  RH  050%=      5-min Rain = 0
KKN1 241338Z 34008KT 09/M01 A3005 RMK A01 T00881010  RH  050%=      5-min Rain = 0
KKN1 241339Z 34011KT 09/M01 A3005 RMK A01 T00881010  RH  050%=      5-min Rain = 0
KKN1 241340Z 33010KT 09/M01 A3005 RMK A01 T00891010  RH  050%=      5-min Rain = 0
KKN1 241341Z 34010KT 09/M01 A3006 RMK A01 T00891010  RH  050%=      5-min Rain = 0
KKN1 241342Z 34010KT 09/M01 A3006 RMK A01 T00901010  RH  050%=      5-min Rain = 0
KKN1 241343Z 35012KT 09/M01 A3006 RMK A01 T00911009  RH  050%=      5-min Rain = 0
KKN1 241344Z 34010KT 09/M01 A3006 RMK A01 T00911010  RH  049%=      5-min Rain = 0
KKN1 241345Z 35012KT 09/M01 A3006 RMK A01 T00921009  RH  049%=      5-min Rain = 0
KKN1 241346Z 35011KT 09/M01 A3006 RMK A01 T00921009  RH  049%=      5-min Rain = 0
KKN1 241347Z 34012G17KT 09/M01 A3006 RMK A01 T00921009  RH  049%=      5-min Rain = 0
KKN1 241348Z 34013G19KT 09/M01 A3006 RMK A01 T00921009  RH  049%=      5-min Rain = 0
KKN1 241349Z 35012KT 09/M01 A3006 RMK A01 T00921009  RH  049%=      5-min Rain = 0
KKN1 241350Z 34011KT 09/M01 A3006 RMK A01 T00931008  RH  049%=      5-min Rain = 0
KKN1 241351Z 35011KT 09/M01 A3006 RMK A01 T00931008  RH  049%=      5-min Rain = 0
KKN1 241352Z 34011KT 09/M01 A3006 RMK A01 T00931007  RH  050%=      5-min Rain = 0
KKN1 241353Z 35012G17KT 09/M01 A3006 RMK A01 T00931007  RH  050%=      5-min Rain = 0
KKN1 241354Z 35014G20KT 09/M01 A3006 RMK A01 T00931008  RH  049%=      5-min Rain = 0
KKN1 241355Z 34013KT 09/M01 A3006 RMK A01 T00941008  RH  049%=      5-min Rain = 0
KKN1 241356Z 34013KT 09/M01 A3006 RMK A01 T00941008  RH  049%=      5-min Rain = 0
KKN1 241357Z 34013KT 10/M01 A3007 RMK A01 T00951007  RH  049%=      5-min Rain = 0
KKN1 241358Z 34012KT 10/M01 A3007 RMK A01 T00951007  RH  049%=      5-min Rain = 0
KKN1 241359Z 34010KT 10/M01 A3007 RMK A01 T00951007  RH  049%=      5-min Rain = 0
KKN1 241400Z 34013G18KT 10/M01 A3007 RMK A01 T00951006  RH  049%=      5-min Rain = 0
KKN1 241401Z 34014KT 10/M01 A3007 RMK A01 T00951007  RH  049%=      5-min Rain = 0
KKN1 241402Z 34015KT 10/M01 A3007 RMK A01 T00961007  RH  049%=      5-min Rain = 0
KKN1 241403Z 34015G21KT 10/M01 A3007 RMK A01 T00961007  RH  049%=      5-min Rain = 0
KKN1 241404Z 34011KT 10/M01 A3007 RMK A01 T00971006  RH  049%=      5-min Rain = 0
KKN1 241405Z 34010KT 10/M01 A3007 RMK A01 T00971006  RH  049%=      5-min Rain = 0
KKN1 241406Z 34012G18KT 10/M01 A3007 RMK A01 T00971005  RH  049%=      5-min Rain = 0
KKN1 241407Z 34011KT 10/M01 A3007 RMK A01 T00971005  RH  049%=      5-min Rain = 0
KKN1 241408Z 34011KT 10/M01 A3007 RMK A01 T00961006  RH  049%=      5-min Rain = 0
KKN1 241409Z 34013KT 10/M01 A3007 RMK A01 T00961006  RH  049%=      5-min Rain = 0
KKN1 241410Z 34013KT 10/M01 A3008 RMK A01 T00951006  RH  049%=      5-min Rain = 0
KKN1 241411Z 34012KT 10/M01 A3008 RMK A01 T00961006  RH  049%=      5-min Rain = 0
KKN1 241412Z 34011KT 10/M01 A3008 RMK A01 T00961005  RH  049%=      5-min Rain = 0
KKN1 241413Z 34011G16KT 10/M01 A3008 RMK A01 T00961005  RH  049%=      5-min Rain = 0
KKN1 241414Z 34012KT 10/M00 A3008 RMK A01 T00971004  RH  049%=      5-min Rain = 0
KKN1 241415Z 34016G21KT 10/M01 A3008 RMK A01 T00971005  RH  049%=      5-min Rain = 0
KKN1 241416Z 34013G19KT 10/M01 A3008 RMK A01 T00981006  RH  048%=      5-min Rain = 0
KKN1 241417Z 34014G19KT 10/M01 A3008 RMK A01 T00991005  RH  048%=      5-min Rain = 0
KKN1 241418Z 34015G20KT 10/M01 A3008 RMK A01 T00991005  RH  048%=      5-min Rain = 0
KKN1 241419Z 34015KT 10/M01 A3009 RMK A01 T00991005  RH  048%=      5-min Rain = 0
KKN1 241420Z 34013G18KT 10/M01 A3009 RMK A01 T00991005  RH  048%=      5-min Rain = 0
KKN1 241421Z 34013KT 10/M01 A3009 RMK A01 T01001005  RH  048%=      5-min Rain = 0
KKN1 241422Z 34010G15KT 10/M00 A3009 RMK A01 T01001004  RH  048%=      5-min Rain = 0
KKN1 241423Z 34012G18KT 10/M00 A3009 RMK A01 T01011004  RH  048%=      5-min Rain = 0
KKN1 241424Z 33013G18KT 10/M01 A3009 RMK A01 T01011005  RH  048%=      5-min Rain = 0
KKN1 241425Z 34014KT 10/M01 A3009 RMK A01 T01011006  RH  047%=      5-min Rain = 0
KKN1 241426Z 33012G17KT 10/M01 A3009 RMK A01 T01011005  RH  048%=      5-min Rain = 0
KKN1 241427Z 34015G20KT 10/M01 A3009 RMK A01 T01011005  RH  048%=      5-min Rain = 0
KKN1 241428Z 35015G21KT 10/M01 A301 RMK A01 T01011006  RH  047%=      5-min Rain = 0
KKN1 241429Z 34014KT 10/M00 A301 RMK A01 T01011004  RH  048%=      5-min Rain = 0
KKN1 241430Z 35012KT 10/M00 A301 RMK A01 T01011004  RH  048%=      5-min Rain = 0
KKN1 241431Z 35016KT 10/M00 A301 RMK A01 T01021004  RH  048%=      5-min Rain = 0
KKN1 241432Z 35015G21KT 10/M00 A301 RMK A01 T01021004  RH  048%=      5-min Rain = 0
KKN1 241433Z 36015G21KT 10/M00 A301 RMK A01 T01021004  RH  048%=      5-min Rain = 0
KKN1 241434Z 36015KT 10/M01 A301 RMK A01 T01021005  RH  047%=      5-min Rain = 0
KKN1 241435Z 35013G19KT 10/M01 A301 RMK A01 T01021005  RH  047%=      5-min Rain = 0
KKN1 241436Z 35012G17KT 10/M00 A301 RMK A01 T01021004  RH  047%=      5-min Rain = 0
KKN1 241437Z 35012G19KT 10/M00 A301 RMK A01 T01031002  RH  048%=      5-min Rain = 0
KKN1 241438Z 35015G20KT 10/M00 A301 RMK A01 T01041003  RH  047%=      5-min Rain = 0
KKN1 241439Z 35014KT 10/M00 A301 RMK A01 T01041004  RH  047%=      5-min Rain = 0
KKN1 241440Z 36014G19KT 10/M01 A3011 RMK A01 T01041005  RH  047%=      5-min Rain = 0
KKN1 241441Z 35014KT 11/M00 A301 RMK A01 T01051004  RH  047%=      5-min Rain = 0
KKN1 241442Z 35015G20KT 11/M01 A301 RMK A01 T01051005  RH  046%=      5-min Rain = 0
KKN1 241443Z 36014KT 11/M01 A301 RMK A01 T01051005  RH  046%=      5-min Rain = 0
KKN1 241444Z 00017KT 11/M01 A3011 RMK A01 T01051006  RH  046%=      5-min Rain = 0
KKN1 241445Z 00015G20KT 10/M01 A3011 RMK A01 T01041006  RH  046%=      5-min Rain = 0
KKN1 241446Z 36015G20KT 10/M01 A3011 RMK A01 T01041005  RH  047%=      5-min Rain = 0
KKN1 241447Z 36015G20KT 10/M01 A3011 RMK A01 T01041006  RH  046%=      5-min Rain = 0
KKN1 241448Z 36016G21KT 10/M01 A3011 RMK A01 T01041008  RH  046%=      5-min Rain = 0
KKN1 241449Z 35016G23KT 10/M01 A3011 RMK A01 T01041007  RH  046%=      5-min Rain = 0
KKN1 241450Z 36018G24KT 11/M01 A3011 RMK A01 T01051008  RH  046%=      5-min Rain = 0
KKN1 241451Z 00014G23KT 11/M01 A3011 RMK A01 T01051008  RH  046%=      5-min Rain = 0
KKN1 241452Z 35016G21KT 11/M01 A3011 RMK A01 T01051006  RH  046%=      5-min Rain = 0
KKN1 241453Z 36017G24KT 11/M01 A3011 RMK A01 T01061008  RH  045%=      5-min Rain = 0
KKN1 241454Z 36016G21KT 11/M01 A3011 RMK A01 T01061006  RH  046%=      5-min Rain = 0
KKN1 241455Z 35017G22KT 11/M01 A3012 RMK A01 T01061007  RH  045%=      5-min Rain = 0
KKN1 241456Z 36017G22KT 11/M01 A3011 RMK A01 T01061008  RH  045%=      5-min Rain = 0
KKN1 241457Z 00020KT 11/M01 A3012 RMK A01 T01061008  RH  045%=      5-min Rain = 0
KKN1 241458Z 00018G25KT 11/M01 A3012 RMK A01 T01051011  RH  045%=      5-min Rain = 0
KKN1 241459Z 01018G24KT 10/M01 A3012 RMK A01 T01041009  RH  045%=      5-min Rain = 0
KKN1 241500Z 00019G25KT 10/M01 A3012 RMK A01 T01041010  RH  045%=      5-min Rain = 0
KKN1 241501Z 01018G24KT 10/M01 A3012 RMK A01 T01041010  RH  045%=      5-min Rain = 0
KKN1 241502Z 00016G22KT 11/M01 A3012 RMK A01 T01051009  RH  045%=      5-min Rain = 0
KKN1 241503Z 01017KT 11/M01 A3012 RMK A01 T01051009  RH  045%=      5-min Rain = 0
KKN1 241504Z 00015KT 11/M01 A3012 RMK A01 T01051008  RH  045%=      5-min Rain = 0
KKN1 241505Z 35017G22KT 11/M01 A3012 RMK A01 T01061008  RH  045%=      5-min Rain = 0
KKN1 241506Z 36018G23KT 11/M01 A3012 RMK A01 T01061009  RH  045%=      5-min Rain = 0
KKN1 241507Z 00017KT 11/M01 A3012 RMK A01 T01061009  RH  045%=      5-min Rain = 0
KKN1 241508Z 00020G27KT 11/M01 A3012 RMK A01 T01061009  RH  045%=      5-min Rain = 0
KKN1 241509Z 00021KT 11/M01 A3012 RMK A01 T01061011  RH  044%=      5-min Rain = 0
KKN1 241510Z 00021KT 11/M01 A3012 RMK A01 T01061011  RH  044%=      5-min Rain = 0
KKN1 241511Z 01020G27KT 11/M01 A3012 RMK A01 T01061011  RH  044%=      5-min Rain = 0
KKN1 241512Z 00017KT 11/M01 A3012 RMK A01 T01061011  RH  044%=      5-min Rain = 0
KKN1 241513Z 01015KT 11/M01 A3012 RMK A01 T01061009  RH  045%=      5-min Rain = 0
KKN1 241514Z 00016G22KT 11/M01 A3013 RMK A01 T01071008  RH  045%=      5-min Rain = 0
KKN1 241515Z 01017G23KT 11/M01 A3013 RMK A01 T01081008  RH  044%=      5-min Rain = 0
KKN1 241516Z 34021G29KT 11/M01 A3013 RMK A01 T01081010  RH  044%=      5-min Rain = 0
KKN1 241517Z 00021G28KT 11/M01 A3013 RMK A01 T01081011  RH  044%=      5-min Rain = 0
KKN1 241518Z 00020G26KT 11/M01 A3013 RMK A01 T01081012  RH  043%=      5-min Rain = 0
KKN1 241519Z 01018G24KT 11/M01 A3013 RMK A01 T01071012  RH  044%=      5-min Rain = 0
KKN1 241520Z 36015G21KT 11/M01 A3013 RMK A01 T01071011  RH  044%=      5-min Rain = 0
KKN1 241521Z 01015G20KT 11/M01 A3013 RMK A01 T01081009  RH  044%=      5-min Rain = 0
KKN1 241522Z 01016G23KT 11/M01 A3013 RMK A01 T01091009  RH  044%=      5-min Rain = 0
KKN1 241523Z 01015G21KT 11/M01 A3013 RMK A01 T01091011  RH  043%=      5-min Rain = 0
KKN1 241524Z 01019G26KT 11/M01 A3014 RMK A01 T01091010  RH  044%=      5-min Rain = 0
KKN1 241525Z 01022G29KT 11/M01 A3014 RMK A01 T01091011  RH  043%=      5-min Rain = 0
KKN1 241526Z 01020G26KT 11/M01 A3014 RMK A01 T01081013  RH  043%=      5-min Rain = 0
KKN1 241527Z 00020G25KT 11/M01 A3014 RMK A01 T01071013  RH  043%=      5-min Rain = 0
KKN1 241528Z 00020G26KT 11/M01 A3014 RMK A01 T01071013  RH  043%=      5-min Rain = 0
KKN1 241529Z 00020KT 11/M01 A3014 RMK A01 T01081012  RH  043%=      5-min Rain = 0
KKN1 241530Z 00019G26KT 11/M01 A3014 RMK A01 T01091011  RH  043%=      5-min Rain = 0
KKN1 241531Z 00022G29KT 11/M01 A3014 RMK A01 T01091013  RH  042%=      5-min Rain = 0
KKN1 241532Z 36019G25KT 11/M01 A3014 RMK A01 T01081013  RH  043%=      5-min Rain = 0
KKN1 241533Z 00017KT 11/M01 A3014 RMK A01 T01091013  RH  043%=      5-min Rain = 0
KKN1 241534Z 00018G26KT 11/M01 A3014 RMK A01 T01101010  RH  043%=      5-min Rain = 0
KKN1 241535Z 00019G24KT 11/M01 A3014 RMK A01 T01111012  RH  043%=      5-min Rain = 0
KKN1 241536Z 36018G24KT 11/M01 A3014 RMK A01 T01101012  RH  043%=      5-min Rain = 0
KKN1 241537Z 00018G24KT 11/M01 A3014 RMK A01 T01101013  RH  042%=      5-min Rain = 0
KKN1 241538Z 00017KT 11/M01 A3014 RMK A01 T01101011  RH  043%=      5-min Rain = 0
KKN1 241539Z 35015G20KT 11/M01 A3014 RMK A01 T01121010  RH  043%=      5-min Rain = 0
KKN1 241540Z 00014G21KT 11/M01 A3014 RMK A01 T01131010  RH  042%=      5-min Rain = 0
KKN1 241541Z 01016KT 11/M01 A3014 RMK A01 T01141010  RH  042%=      5-min Rain = 0
KKN1 241542Z 01013KT 11/M01 A3014 RMK A01 T01141009  RH  042%=      5-min Rain = 0
KKN1 241543Z 00013G19KT 12/M01 A3015 RMK A01 T01151007  RH  043%=      5-min Rain = 0
KKN1 241544Z 36013KT 12/M01 A3015 RMK A01 T01161008  RH  042%=      5-min Rain = 0
KKN1 241545Z 35020G28KT 12/M01 A3014 RMK A01 T01171008  RH  042%=      5-min Rain = 0
KKN1 241546Z 35022G28KT 12/M01 A3014 RMK A01 T01161012  RH  041%=      5-min Rain = 0
KKN1 241547Z 35022G27KT 12/M01 A3014 RMK A01 T01151014  RH  041%=      5-min Rain = 0
KKN1 241548Z 35020G26KT 11/M01 A3014 RMK A01 T01141014  RH  041%=      5-min Rain = 0
KKN1 241549Z 35021KT 11/M01 A3014 RMK A01 T01131013  RH  042%=      5-min Rain = 0
KKN1 241550Z 35019G24KT 11/M01 A3015 RMK A01 T01131014  RH  041%=      5-min Rain = 0
KKN1 241551Z 36020G27KT 11/M01 A3015 RMK A01 T01131013  RH  041%=      5-min Rain = 0
KKN1 241552Z 35021G27KT 11/M01 A3015 RMK A01 T01131013  RH  042%=      5-min Rain = 0
KKN1 241553Z 35021G26KT 11/M01 A3015 RMK A01 T01141013  RH  041%=      5-min Rain = 0
KKN1 241554Z 36020KT 11/M01 A3015 RMK A01 T01141013  RH  041%=      5-min Rain = 0
KKN1 241555Z 00019G24KT 11/M01 A3015 RMK A01 T01141012  RH  042%=      5-min Rain = 0
KKN1 241556Z 34020G25KT 12/M01 A3015 RMK A01 T01151011  RH  042%=      5-min Rain = 0
KKN1 241557Z 36020G26KT 12/M01 A3015 RMK A01 T01161012  RH  041%=      5-min Rain = 0
KKN1 241558Z 01020KT 12/M01 A3015 RMK A01 T01161012  RH  041%=      5-min Rain = 0
KKN1 241559Z 00018G24KT 12/M01 A3015 RMK A01 T01161012  RH  041%=      5-min Rain = 0
KKN1 241600Z 36018G25KT 12/M01 A3015 RMK A01 T01161012  RH  041%=      5-min Rain = 0
KKN1 241601Z 01017G25KT 12/M01 A3015 RMK A01 T01171009  RH  042%=      5-min Rain = 0
KKN1 241602Z 01020G25KT 12/M01 A3015 RMK A01 T01171013  RH  040%=      5-min Rain = 0
KKN1 241603Z 01017G24KT 12/M01 A3015 RMK A01 T01151014  RH  041%=      5-min Rain = 0
KKN1 241604Z 01013G18KT 12/M01 A3015 RMK A01 T01161011  RH  041%=      5-min Rain = 0
KKN1 241605Z 01014G20KT 12/M01 A3015 RMK A01 T01191008  RH  041%=      5-min Rain = 0
KKN1 241606Z 35013G23KT 12/M01 A3015 RMK A01 T01201007  RH  041%=      5-min Rain = 0
KKN1 241607Z 36014G22KT 12/M01 A3015 RMK A01 T01221007  RH  041%=      5-min Rain = 0
KKN1 241608Z 00016G22KT 12/M01 A3015 RMK A01 T01241007  RH  040%=      5-min Rain = 0
KKN1 241609Z 35019G25KT 12/M01 A3015 RMK A01 T01231009  RH  040%=      5-min Rain = 0
KKN1 241610Z 01017G22KT 12/M01 A3015 RMK A01 T01221010  RH  040%=      5-min Rain = 0
KKN1 241611Z 00017G22KT 12/M01 A3015 RMK A01 T01191014  RH  040%=      5-min Rain = 0
KKN1 241612Z 01016G22KT 12/M01 A3015 RMK A01 T01181013  RH  040%=      5-min Rain = 0
KKN1 241613Z 35019G26KT 12/M01 A3015 RMK A01 T01181011  RH  041%=      5-min Rain = 0
KKN1 241614Z 00017KT 12/M01 A3015 RMK A01 T01191011  RH  040%=      5-min Rain = 0
KKN1 241615Z 00015G20KT 12/M01 A3015 RMK A01 T01191010  RH  041%=      5-min Rain = 0
KKN1 241616Z 00016G22KT 12/M01 A3015 RMK A01 T01201009  RH  041%=      5-min Rain = 0
KKN1 241617Z 00012G17KT 12/M01 A3015 RMK A01 T01221008  RH  041%=      5-min Rain = 0
KKN1 241618Z 01012KT 12/M01 A3015 RMK A01 T01241006  RH  041%=      5-min Rain = 0
KKN1 241619Z 35015G24KT 13/M01 A3015 RMK A01 T01261005  RH  040%=      5-min Rain = 0
KKN1 241620Z 36017KT 13/M01 A3015 RMK A01 T01261012  RH  038%=      5-min Rain = 0
KKN1 241621Z 01017G25KT 12/M01 A3015 RMK A01 T01221012  RH  039%=      5-min Rain = 0
KKN1 241622Z 01019G25KT 12/M01 A3015 RMK A01 T01201013  RH  040%=      5-min Rain = 0
KKN1 241623Z 01018G25KT 12/M01 A3016 RMK A01 T01191013  RH  040%=      5-min Rain = 0
KKN1 241624Z 01016G23KT 12/M01 A3015 RMK A01 T01191012  RH  040%=      5-min Rain = 0
KKN1 241625Z 01017G25KT 12/M01 A3016 RMK A01 T01201010  RH  041%=      5-min Rain = 0
KKN1 241626Z 01021G26KT 12/M01 A3016 RMK A01 T01211013  RH  040%=      5-min Rain = 0
KKN1 241627Z 36019G24KT 12/M01 A3015 RMK A01 T01191013  RH  040%=      5-min Rain = 0
KKN1 241628Z 00020G27KT 12/M01 A3015 RMK A01 T01201012  RH  040%=      5-min Rain = 0
KKN1 241629Z 36019G25KT 12/M01 A3016 RMK A01 T01201011  RH  040%=      5-min Rain = 0
KKN1 241630Z 01020G26KT 12/M01 A3016 RMK A01 T01201013  RH  040%=      5-min Rain = 0
KKN1 241631Z 36018G25KT 12/M01 A3016 RMK A01 T01191012  RH  040%=      5-min Rain = 0
KKN1 241632Z 35020G27KT 12/M01 A3016 RMK A01 T01221009  RH  040%=      5-min Rain = 0
KKN1 241633Z 36020G25KT 12/M01 A3016 RMK A01 T01221012  RH  039%=      5-min Rain = 0
KKN1 241634Z 36016G22KT 12/M01 A3016 RMK A01 T01221011  RH  040%=      5-min Rain = 0
KKN1 241635Z 00018G24KT 12/M01 A3016 RMK A01 T01241008  RH  040%=      5-min Rain = 0
KKN1 241636Z 00019G25KT 12/M01 A3016 RMK A01 T01241011  RH  039%=      5-min Rain = 0
KKN1 241637Z 36016G21KT 12/M01 A3016 RMK A01 T01231011  RH  039%=      5-min Rain = 0
KKN1 241638Z 01016KT 12/M01 A3016 RMK A01 T01231011  RH  039%=      5-min Rain = 0
KKN1 241639Z 00014KT 12/M01 A3016 RMK A01 T01231010  RH  040%=      5-min Rain = 0
KKN1 241640Z 00017G22KT 13/M01 A3016 RMK A01 T01251007  RH  040%=      5-min Rain = 0
KKN1 241641Z 36018KT 13/M01 A3016 RMK A01 T01261010  RH  039%=      5-min Rain = 0
KKN1 241642Z 00016KT 13/M01 A3016 RMK A01 T01251010  RH  039%=      5-min Rain = 0
KKN1 241643Z 00017KT 13/M01 A3016 RMK A01 T01251010  RH  039%=      5-min Rain = 0
KKN1 241644Z 36015G20KT 12/M01 A3016 RMK A01 T01241011  RH  039%=      5-min Rain = 0
KKN1 241645Z 00016G25KT 13/M01 A3016 RMK A01 T01261006  RH  040%=      5-min Rain = 0
KKN1 241646Z 01016G22KT 13/M01 A3016 RMK A01 T01271009  RH  039%=      5-min Rain = 0
KKN1 241647Z 01015G21KT 13/M01 A3016 RMK A01 T01261010  RH  039%=      5-min Rain = 0
KKN1 241648Z 36015KT 13/M01 A3016 RMK A01 T01251009  RH  039%=      5-min Rain = 0
KKN1 241649Z 36017G22KT 13/M01 A3016 RMK A01 T01271008  RH  039%=      5-min Rain = 0
KKN1 241650Z 00017G22KT 13/M01 A3016 RMK A01 T01281009  RH  039%=      5-min Rain = 0
KKN1 241651Z 01017G22KT 13/M01 A3016 RMK A01 T01271009  RH  039%=      5-min Rain = 0
KKN1 241652Z 02016G22KT 13/M01 A3016 RMK A01 T01251011  RH  039%=      5-min Rain = 0
KKN1 241653Z 01014G19KT 12/M01 A3016 RMK A01 T01241009  RH  040%=      5-min Rain = 0
KKN1 241654Z 36014G19KT 13/M01 A3016 RMK A01 T01251009  RH  039%=      5-min Rain = 0
KKN1 241655Z 34016KT 13/M01 A3016 RMK A01 T01281005  RH  040%=      5-min Rain = 0
KKN1 241656Z 34015KT 13/M01 A3016 RMK A01 T01301008  RH  039%=      5-min Rain = 0
KKN1 241657Z 35017G22KT 13/M01 A3016 RMK A01 T01311006  RH  039%=      5-min Rain = 0
KKN1 241658Z 36017KT 13/M01 A3016 RMK A01 T01311011  RH  038%=      5-min Rain = 0
KKN1 241659Z 35015G21KT 13/M01 A3016 RMK A01 T01291009  RH  039%=      5-min Rain = 0
KKN1 241700Z 36017G22KT 13/M01 A3016 RMK A01 T01301008  RH  038%=      5-min Rain = 0
KKN1 241701Z 35016G21KT 13/M01 A3016 RMK A01 T01311009  RH  038%=      5-min Rain = 0
KKN1 241702Z 35015KT 13/M01 A3016 RMK A01 T01301010  RH  038%=      5-min Rain = 0
KKN1 241703Z 35017KT 13/M01 A3016 RMK A01 T01301009  RH  038%=      5-min Rain = 0
KKN1 241704Z 36017G22KT 13/M01 A3016 RMK A01 T01301010  RH  038%=      5-min Rain = 0
KKN1 241705Z 00015G22KT 13/M01 A3016 RMK A01 T01291011  RH  038%=      5-min Rain = 0
KKN1 241706Z 01017G24KT 13/M01 A3016 RMK A01 T01291009  RH  039%=      5-min Rain = 0
KKN1 241707Z 01015G20KT 13/M01 A3016 RMK A01 T01311007  RH  039%=      5-min Rain = 0
KKN1 241708Z 36015G21KT 13/M01 A3016 RMK A01 T01301010  RH  038%=      5-min Rain = 0
KKN1 241709Z 36018G23KT 13/M01 A3016 RMK A01 T01301009  RH  038%=      5-min Rain = 0
KKN1 241710Z 01017KT 13/M01 A3016 RMK A01 T01301011  RH  038%=      5-min Rain = 0
KKN1 241711Z 00015G20KT 13/M01 A3017 RMK A01 T01291011  RH  038%=      5-min Rain = 0
KKN1 241712Z 00014G20KT 13/M01 A3017 RMK A01 T01281010  RH  038%=      5-min Rain = 0
KKN1 241713Z 01017G23KT 13/M01 A3017 RMK A01 T01301009  RH  038%=      5-min Rain = 0
KKN1 241714Z 00016KT 13/M01 A3017 RMK A01 T01301012  RH  038%=      5-min Rain = 0
KKN1 241715Z 36016KT 13/M01 A3017 RMK A01 T01281012  RH  038%=      5-min Rain = 0
KKN1 241716Z 35016G22KT 13/M01 A3016 RMK A01 T01281010  RH  038%=      5-min Rain = 0
KKN1 241717Z 35016KT 13/M01 A3016 RMK A01 T01301008  RH  038%=      5-min Rain = 0
KKN1 241718Z 35016G21KT 13/M01 A3016 RMK A01 T01331008  RH  038%=      5-min Rain = 0
KKN1 241719Z 00015G20KT 13/M01 A3016 RMK A01 T01331010  RH  037%=      5-min Rain = 0
KKN1 241720Z 00013KT 13/M01 A3016 RMK A01 T01311010  RH  038%=      5-min Rain = 0
KKN1 241721Z 36016G22KT 13/M01 A3016 RMK A01 T01321006  RH  039%=      5-min Rain = 0
KKN1 241722Z 00016G22KT 13/M01 A3017 RMK A01 T01341005  RH  038%=      5-min Rain = 0
KKN1 241723Z 01014KT 14/M00 A3017 RMK A01 T01361004  RH  038%=      5-min Rain = 0
KKN1 241724Z 36015G20KT 14/M01 A3017 RMK A01 T01351010  RH  037%=      5-min Rain = 0
KKN1 241725Z 01015G20KT 13/M01 A3017 RMK A01 T01331009  RH  038%=      5-min Rain = 0
KKN1 241726Z 02015KT 13/M01 A3017 RMK A01 T01341006  RH  038%=      5-min Rain = 0
KKN1 241727Z 01015G21KT 13/M01 A3017 RMK A01 T01341009  RH  037%=      5-min Rain = 0
KKN1 241728Z 02015KT 13/M01 A3017 RMK A01 T01331009  RH  038%=      5-min Rain = 0
KKN1 241729Z 35015G21KT 13/M01 A3016 RMK A01 T01331005  RH  038%=      5-min Rain = 0
KKN1 241730Z 35018G23KT 14/M01 A3016 RMK A01 T01351008  RH  037%=      5-min Rain = 0
KKN1 241731Z 36017G22KT 14/M01 A3016 RMK A01 T01351010  RH  037%=      5-min Rain = 0
KKN1 241732Z 36014KT 13/M01 A3016 RMK A01 T01341009  RH  037%=      5-min Rain = 0
KKN1 241733Z 36018KT 14/M01 A3016 RMK A01 T01351007  RH  037%=      5-min Rain = 0
KKN1 241734Z 00015KT 14/M01 A3016 RMK A01 T01361009  RH  037%=      5-min Rain = 0
KKN1 241735Z 01013G18KT 14/M01 A3016 RMK A01 T01361006  RH  037%=      5-min Rain = 0
KKN1 241736Z 36018G24KT 14/M01 A3016 RMK A01 T01371006  RH  037%=      5-min Rain = 0
KKN1 241737Z 00019G25KT 14/M01 A3016 RMK A01 T01371011  RH  036%=      5-min Rain = 0
KKN1 241738Z 36015KT 13/M01 A3016 RMK A01 T01341011  RH  037%=      5-min Rain = 0
KKN1 241739Z 36015KT 14/M01 A3016 RMK A01 T01351007  RH  037%=      5-min Rain = 0
KKN1 241740Z 36014G19KT 14/M01 A3016 RMK A01 T01371009  RH  036%=      5-min Rain = 0
KKN1 241741Z 01014G19KT 14/M01 A3016 RMK A01 T01391007  RH  037%=      5-min Rain = 0
KKN1 241742Z 00013KT 14/M01 A3016 RMK A01 T01401006  RH  037%=      5-min Rain = 0
KKN1 241743Z 01014G20KT 14/M00 A3016 RMK A01 T01411003  RH  037%=      5-min Rain = 0
KKN1 241744Z 01018G23KT 14/M01 A3016 RMK A01 T01411009  RH  036%=      5-min Rain = 0
KKN1 241745Z 01015KT 14/M01 A3016 RMK A01 T01361012  RH  036%=      5-min Rain = 0
KKN1 241746Z 01013KT 14/M01 A3016 RMK A01 T01351008  RH  037%=      5-min Rain = 0
KKN1 241747Z 35013KT 14/M01 A3016 RMK A01 T01361009  RH  037%=      5-min Rain = 0
KKN1 241748Z 01014G19KT 14/M00 A3016 RMK A01 T01391003  RH  038%=      5-min Rain = 0
KKN1 241749Z 02015G20KT 14/M01 A3016 RMK A01 T01411006  RH  036%=      5-min Rain = 0
KKN1 241750Z 01016KT 14/M01 A3016 RMK A01 T01401006  RH  036%=      5-min Rain = 0
KKN1 241751Z 01014G19KT 14/M01 A3016 RMK A01 T01391009  RH  036%=      5-min Rain = 0
KKN1 241752Z 00015G20KT 14/M01 A3016 RMK A01 T01381008  RH  036%=      5-min Rain = 0
KKN1 241753Z 35016KT 14/M01 A3016 RMK A01 T01401009  RH  036%=      5-min Rain = 0
KKN1 241754Z 02014G21KT 14/M01 A3016 RMK A01 T01401010  RH  036%=      5-min Rain = 0
KKN1 241755Z 01017G24KT 14/M01 A3016 RMK A01 T01391010  RH  036%=      5-min Rain = 0
KKN1 241756Z 01017G24KT 14/M01 A3016 RMK A01 T01381013  RH  035%=      5-min Rain = 0
KKN1 241757Z 02017KT 14/M01 A3016 RMK A01 T01381012  RH  036%=      5-min Rain = 0
KKN1 241758Z 02018G23KT 14/M01 A3016 RMK A01 T01381013  RH  035%=      5-min Rain = 0
KKN1 241759Z 02015G23KT 14/M01 A3016 RMK A01 T01361011  RH  036%=      5-min Rain = 0
KKN1 241800Z 01016G22KT 14/M01 A3016 RMK A01 T01391008  RH  036%=      5-min Rain = 0
KKN1 241801Z 01017G22KT 14/M01 A3016 RMK A01 T01401012  RH  035%=      5-min Rain = 0
KKN1 241802Z 01016G21KT 14/M01 A3016 RMK A01 T01381013  RH  035%=      5-min Rain = 0
KKN1 241803Z 01011G16KT 14/M01 A3016 RMK A01 T01381011  RH  036%=      5-min Rain = 0
KKN1 241804Z 36010KT 14/M01 A3016 RMK A01 T01401006  RH  037%=      5-min Rain = 0
KKN1 241805Z 35017G24KT 14/M01 A3016 RMK A01 T01441006  RH  036%=      5-min Rain = 0
KKN1 241806Z 01017G22KT 14/M01 A3016 RMK A01 T01441013  RH  034%=      5-min Rain = 0
KKN1 241807Z 01014G20KT 14/M01 A3016 RMK A01 T01411013  RH  035%=      5-min Rain = 0
KKN1 241808Z 01013KT 14/M01 A3016 RMK A01 T01401013  RH  035%=      5-min Rain = 0
KKN1 241809Z 01011KT 14/M01 A3016 RMK A01 T01391011  RH  036%=      5-min Rain = 0
KKN1 241810Z 35012KT 14/M01 A3016 RMK A01 T01411009  RH  035%=      5-min Rain = 0
KKN1 241811Z 01015G20KT 14/M01 A3016 RMK A01 T01431010  RH  035%=      5-min Rain = 0
KKN1 241812Z 01016G22KT 14/M02 A3016 RMK A01 T01421015  RH  034%=      5-min Rain = 0
KKN1 241813Z 00017G22KT 14/M01 A3016 RMK A01 T01401014  RH  035%=      5-min Rain = 0
KKN1 241814Z 35017KT 14/M01 A3016 RMK A01 T01401014  RH  035%=      5-min Rain = 0
KKN1 241815Z 35015KT 14/M02 A3016 RMK A01 T01411016  RH  034%=      5-min Rain = 0
KKN1 241816Z 36013KT 14/M02 A3016 RMK A01 T01411015  RH  034%=      5-min Rain = 0
KKN1 241817Z 03014KT 14/M01 A3016 RMK A01 T01411012  RH  035%=      5-min Rain = 0
KKN1 241818Z 03013KT 14/M01 A3016 RMK A01 T01421010  RH  035%=      5-min Rain = 0
KKN1 241819Z 03012G17KT 14/M01 A3016 RMK A01 T01431009  RH  035%=      5-min Rain = 0
KKN1 241820Z 03015G20KT 15/M01 A3016 RMK A01 T01461006  RH  035%=      5-min Rain = 0
KKN1 241821Z 01017G22KT 15/M01 A3016 RMK A01 T01471007  RH  035%=      5-min Rain = 0
KKN1 241822Z 00016G21KT 15/M01 A3016 RMK A01 T01471013  RH  033%=      5-min Rain = 0
KKN1 241823Z 01015G21KT 14/M02 A3016 RMK A01 T01441016  RH  033%=      5-min Rain = 0
KKN1 241824Z 02012KT 14/M01 A3016 RMK A01 T01431014  RH  034%=      5-min Rain = 0
KKN1 241825Z 02014KT 14/M01 A3015 RMK A01 T01431010  RH  035%=      5-min Rain = 0
KKN1 241826Z 00012G17KT 14/M01 A3015 RMK A01 T01441010  RH  035%=      5-min Rain = 0
KKN1 241827Z 34016G21KT 15/M01 A3015 RMK A01 T01451014  RH  034%=      5-min Rain = 0
KKN1 241828Z 36013KT 15/M02 A3015 RMK A01 T01451016  RH  033%=      5-min Rain = 0
KKN1 241829Z 00013KT 15/M01 A3015 RMK A01 T01451012  RH  034%=      5-min Rain = 0
KKN1 241830Z 36013KT 15/M01 A3015 RMK A01 T01471011  RH  034%=      5-min Rain = 0
KKN1 241831Z 35014KT 15/M01 A3015 RMK A01 T01461013  RH  033%=      5-min Rain = 0
KKN1 241832Z 00014KT 15/M01 A3015 RMK A01 T01461011  RH  034%=      5-min Rain = 0
KKN1 241833Z 00016G22KT 15/M01 A3015 RMK A01 T01481010  RH  034%=      5-min Rain = 0
KKN1 241834Z 00019KT 15/M02 A3015 RMK A01 T01471015  RH  033%=      5-min Rain = 0
KKN1 241835Z 00017G22KT 15/M01 A3015 RMK A01 T01461014  RH  033%=      5-min Rain = 0
KKN1 241836Z 01015G20KT 15/M01 A3015 RMK A01 T01461011  RH  034%=      5-min Rain = 0
KKN1 241837Z 01014KT 15/M02 A3015 RMK A01 T01461015  RH  033%=      5-min Rain = 0
KKN1 241838Z 02012G19KT 14/M02 A3014 RMK A01 T01441015  RH  033%=      5-min Rain = 0
KKN1 241839Z 36012KT 14/M01 A3014 RMK A01 T01431013  RH  034%=      5-min Rain = 0
KKN1 241840Z 00013KT 15/M01 A3014 RMK A01 T01451012  RH  034%=      5-min Rain = 0
KKN1 241841Z 00014KT 15/M01 A3014 RMK A01 T01481010  RH  034%=      5-min Rain = 0
KKN1 241842Z 01014KT 15/M02 A3014 RMK A01 T01491015  RH  032%=      5-min Rain = 0
KKN1 241843Z 01011KT 15/M02 A3014 RMK A01 T01451016  RH  033%=      5-min Rain = 0
KKN1 241844Z 01012KT 15/M01 A3014 RMK A01 T01461008  RH  035%=      5-min Rain = 0
KKN1 241845Z 02014G19KT 15/M00 A3014 RMK A01 T01511004  RH  035%=      5-min Rain = 0
KKN1 241846Z 01016KT 15/M01 A3014 RMK A01 T01531009  RH  033%=      5-min Rain = 0
KKN1 241847Z 01012KT 15/M01 A3014 RMK A01 T01511013  RH  032%=      5-min Rain = 0
KKN1 241848Z 00013G20KT 15/M01 A3014 RMK A01 T01501010  RH  033%=      5-min Rain = 0
KKN1 241849Z 00017KT 15/M01 A3014 RMK A01 T01511012  RH  033%=      5-min Rain = 0
KKN1 241850Z 00014KT 15/M01 A3014 RMK A01 T01511013  RH  032%=      5-min Rain = 0
KKN1 241851Z 36011KT 15/M01 A3014 RMK A01 T01491014  RH  033%=      5-min Rain = 0
KKN1 241852Z 00018G24KT 15/M01 A3013 RMK A01 T01501010  RH  033%=      5-min Rain = 0
KKN1 241853Z 01016KT 15/M01 A3014 RMK A01 T01511013  RH  032%=      5-min Rain = 0
KKN1 241854Z 01014KT 15/M01 A3014 RMK A01 T01501012  RH  033%=      5-min Rain = 0
KKN1 241855Z 02014KT 15/M01 A3014 RMK A01 T01501012  RH  033%=      5-min Rain = 0
KKN1 241856Z 02014G20KT 15/M01 A3013 RMK A01 T01491013  RH  033%=      5-min Rain = 0
KKN1 241857Z 01015KT 15/M01 A3013 RMK A01 T01481014  RH  033%=      5-min Rain = 0
KKN1 241858Z 01015KT 15/M02 A3013 RMK A01 T01481015  RH  033%=      5-min Rain = 0
KKN1 241859Z 01014KT 15/M02 A3013 RMK A01 T01471015  RH  033%=      5-min Rain = 0
KKN1 241900Z 01013KT 15/M01 A3013 RMK A01 T01481012  RH  033%=      5-min Rain = 0
KKN1 241901Z 01013KT 15/M02 A3013 RMK A01 T01481016  RH  032%=      5-min Rain = 0
KKN1 241902Z 02013KT 15/M01 A3013 RMK A01 T01481013  RH  033%=      5-min Rain = 0
KKN1 241903Z 02015G21KT 15/M01 A3013 RMK A01 T01481010  RH  034%=      5-min Rain = 0
KKN1 241904Z 03014KT 15/M01 A3013 RMK A01 T01501009  RH  033%=      5-min Rain = 0
KKN1 241905Z 03016KT 15/M01 A3013 RMK A01 T01531009  RH  033%=      5-min Rain = 0
KKN1 241906Z 03015KT 15/M01 A3013 RMK A01 T01531010  RH  033%=      5-min Rain = 0
KKN1 241907Z 01013G19KT 15/M01 A3013 RMK A01 T01521010  RH  033%=      5-min Rain = 0
KKN1 241908Z 02011KT 15/M01 A3013 RMK A01 T01531009  RH  033%=      5-min Rain = 0
KKN1 241909Z 02011G17KT 15/M01 A3012 RMK A01 T01541005  RH  034%=      5-min Rain = 0
KKN1 241910Z 01015G20KT 16/M01 A3012 RMK A01 T01561006  RH  033%=      5-min Rain = 0
KKN1 241911Z 01017KT 16/M01 A3012 RMK A01 T01571010  RH  032%=      5-min Rain = 0
KKN1 241912Z 02016KT 16/M01 A3012 RMK A01 T01561011  RH  032%=      5-min Rain = 0
KKN1 241913Z 01015G20KT 15/M02 A3012 RMK A01 T01521016  RH  032%=      5-min Rain = 0
KKN1 241914Z 01014KT 15/M01 A3012 RMK A01 T01501014  RH  032%=      5-min Rain = 0
KKN1 241915Z 02014KT 15/M01 A3012 RMK A01 T01501013  RH  033%=      5-min Rain = 0
KKN1 241916Z 01011G16KT 15/M01 A3012 RMK A01 T01501010  RH  033%=      5-min Rain = 0
KKN1 241917Z 01014KT 15/M01 A3012 RMK A01 T01531010  RH  033%=      5-min Rain = 0
KKN1 241918Z 02011KT 15/M01 A3012 RMK A01 T01541009  RH  033%=      5-min Rain = 0
KKN1 241919Z 00015KT 16/M01 A3012 RMK A01 T01571005  RH  033%=      5-min Rain = 0
KKN1 241920Z 01014G19KT 16/M01 A3012 RMK A01 T01581012  RH  031%=      5-min Rain = 0
KKN1 241921Z 01013KT 16/M01 A3012 RMK A01 T01571012  RH  031%=      5-min Rain = 0
KKN1 241922Z 01012KT 16/M01 A3012 RMK A01 T01551013  RH  032%=      5-min Rain = 0
KKN1 241923Z 01011KT 15/M01 A3012 RMK A01 T01541012  RH  032%=      5-min Rain = 0
KKN1 241924Z 03012G17KT 15/M01 A3012 RMK A01 T01541011  RH  032%=      5-min Rain = 0
KKN1 241925Z 02016KT 16/M01 A3012 RMK A01 T01561008  RH  033%=      5-min Rain = 0
KKN1 241926Z 01017KT 16/M01 A3012 RMK A01 T01571011  RH  032%=      5-min Rain = 0
KKN1 241927Z 01014KT 16/M01 A3012 RMK A01 T01551013  RH  032%=      5-min Rain = 0
KKN1 241928Z 02012KT 16/M01 A3011 RMK A01 T01551014  RH  031%=      5-min Rain = 0
KKN1 241929Z 01014KT 15/M01 A3011 RMK A01 T01541012  RH  032%=      5-min Rain = 0
KKN1 241930Z 36014G20KT 16/M01 A3011 RMK A01 T01551010  RH  032%=      5-min Rain = 0
KKN1 241931Z 02015KT 16/M01 A3011 RMK A01 T01571009  RH  032%=      5-min Rain = 0
KKN1 241932Z 02014KT 16/M01 A3011 RMK A01 T01571011  RH  032%=      5-min Rain = 0
KKN1 241933Z 02014KT 16/M01 A3011 RMK A01 T01561010  RH  032%=      5-min Rain = 0
KKN1 241934Z 03012KT 16/M01 A3011 RMK A01 T01561011  RH  032%=      5-min Rain = 0
KKN1 241935Z 03013KT 16/M01 A3011 RMK A01 T01551009  RH  033%=      5-min Rain = 0
KKN1 241936Z 02013KT 16/M00 A3011 RMK A01 T01581002  RH  034%=      5-min Rain = 0
KKN1 241937Z 01012KT 16/M01 A3011 RMK A01 T01601010  RH  031%=      5-min Rain = 0
KKN1 241938Z 01011KT 16/M01 A3011 RMK A01 T01591013  RH  031%=      5-min Rain = 0
KKN1 241939Z 01009KT 16/M01 A3011 RMK A01 T01581011  RH  031%=      5-min Rain = 0
KKN1 241940Z 02012G17KT 16/M01 A301 RMK A01 T01581007  RH  032%=      5-min Rain = 0
KKN1 241941Z 03015KT 16/M01 A3011 RMK A01 T01601005  RH  032%=      5-min Rain = 0
KKN1 241942Z 02016KT 16/M01 A3011 RMK A01 T01621008  RH  031%=      5-min Rain = 0
KKN1 241943Z 01013G19KT 16/M01 A301 RMK A01 T01591012  RH  031%=      5-min Rain = 0
KKN1 241944Z 03013G18KT 16/M01 A301 RMK A01 T01591007  RH  032%=      5-min Rain = 0
KKN1 241945Z 00012KT 16/M01 A301 RMK A01 T01611009  RH  031%=      5-min Rain = 0
KKN1 241946Z 01012G17KT 16/M01 A301 RMK A01 T01621009  RH  031%=      5-min Rain = 0
KKN1 241947Z 01015KT 16/M01 A301 RMK A01 T01621011  RH  031%=      5-min Rain = 0
KKN1 241948Z 01012G17KT 16/M01 A301 RMK A01 T01611009  RH  031%=      5-min Rain = 0
KKN1 241949Z 01010KT 16/M01 A301 RMK A01 T01611011  RH  031%=      5-min Rain = 0
KKN1 241950Z 02008KT 16/M01 A301 RMK A01 T01601013  RH  030%=      5-min Rain = 0
KKN1 241951Z 01010G15KT 16/M01 A301 RMK A01 T01601009  RH  032%=      5-min Rain = 0
KKN1 241952Z 36012KT 16/M01 A301 RMK A01 T01601009  RH  031%=      5-min Rain = 0
KKN1 241953Z 36010KT 16/M01 A301 RMK A01 T01621011  RH  031%=      5-min Rain = 0
KKN1 241954Z 02010G15KT 16/M01 A301 RMK A01 T01621005  RH  032%=      5-min Rain = 0
KKN1 241955Z 02014KT 17/M00 A301 RMK A01 T01651003  RH  032%=      5-min Rain = 0
KKN1 241956Z 00013G18KT 16/M01 A301 RMK A01 T01641011  RH  030%=      5-min Rain = 0
KKN1 241957Z 02012KT 16/M01 A301 RMK A01 T01631009  RH  031%=      5-min Rain = 0
KKN1 241958Z 01011KT 16/M01 A301 RMK A01 T01621011  RH  031%=      5-min Rain = 0
KKN1 241959Z 35013KT 16/M01 A301 RMK A01 T01611012  RH  031%=      5-min Rain = 0
KKN1 242000Z 36013G18KT 16/M01 A301 RMK A01 T01621009  RH  031%=      5-min Rain = 0
KKN1 242001Z 00010KT 17/M01 A301 RMK A01 T01651010  RH  030%=      5-min Rain = 0
KKN1 242002Z 01013G18KT 16/M01 A301 RMK A01 T01641008  RH  031%=      5-min Rain = 0
KKN1 242003Z 01012KT 17/M01 A301 RMK A01 T01651009  RH  031%=      5-min Rain = 0
KKN1 242004Z 02013KT 17/M01 A301 RMK A01 T01661007  RH  031%=      5-min Rain = 0
KKN1 242005Z 01011KT 17/M01 A301 RMK A01 T01661005  RH  031%=      5-min Rain = 0
KKN1 242006Z 02012G18KT 17/M01 A301 RMK A01 T01661008  RH  031%=      5-min Rain = 0
KKN1 242007Z 02013G18KT 17/M01 A301 RMK A01 T01651011  RH  030%=      5-min Rain = 0
KKN1 242008Z 02012G18KT 16/M01 A301 RMK A01 T01631007  RH  031%=      5-min Rain = 0
KKN1 242009Z 02013KT 16/M01 A301 RMK A01 T01641006  RH  031%=      5-min Rain = 0
KKN1 242010Z 02012KT 16/M01 A3009 RMK A01 T01641009  RH  031%=      5-min Rain = 0
KKN1 242011Z 01012KT 16/M01 A3009 RMK A01 T01641007  RH  031%=      5-min Rain = 0
KKN1 242012Z 02014G19KT 17/M00 A3009 RMK A01 T01671001  RH  032%=      5-min Rain = 0
KKN1 242013Z 03015KT 17/M01 A301 RMK A01 T01681008  RH  030%=      5-min Rain = 0
KKN1 242014Z 03012KT 17/M01 A301 RMK A01 T01651010  RH  030%=      5-min Rain = 0
KKN1 242015Z 03009KT 17/M01 A3009 RMK A01 T01651006  RH  031%=      5-min Rain = 0
KKN1 242016Z 03012G17KT 17/M00 A3009 RMK A01 T01671001  RH  032%=      5-min Rain = 0
KKN1 242017Z 02014G19KT 17/M00 A301 RMK A01 T01691003  RH  031%=      5-min Rain = 0
KKN1 242018Z 02013KT 17/M01 A301 RMK A01 T01691006  RH  030%=      5-min Rain = 0
KKN1 242019Z 01012G17KT 17/M01 A301 RMK A01 T01681007  RH  030%=      5-min Rain = 0
KKN1 242020Z 00011KT 17/M01 A301 RMK A01 T01681007  RH  030%=      5-min Rain = 0
KKN1 242021Z 01012G18KT 17/M01 A3009 RMK A01 T01681012  RH  029%=      5-min Rain = 0
KKN1 242022Z 02012G18KT 17/M01 A3009 RMK A01 T01661012  RH  030%=      5-min Rain = 0
KKN1 242023Z 00013KT 16/M01 A3009 RMK A01 T01641009  RH  031%=      5-min Rain = 0
KKN1 242024Z 01015KT 17/M01 A301 RMK A01 T01661008  RH  030%=      5-min Rain = 0
KKN1 242025Z 02012G17KT 17/M01 A301 RMK A01 T01661010  RH  030%=      5-min Rain = 0
KKN1 242026Z 01013KT 17/M01 A301 RMK A01 T01661007  RH  031%=      5-min Rain = 0
KKN1 242027Z 02011G16KT 17/M01 A301 RMK A01 T01681005  RH  031%=      5-min Rain = 0
KKN1 242028Z 03015KT 17/M00 A301 RMK A01 T01711002  RH  031%=      5-min Rain = 0
KKN1 242029Z 02012KT 17/M01 A301 RMK A01 T01701008  RH  030%=      5-min Rain = 0
KKN1 242030Z 02012KT 17/M01 A301 RMK A01 T01671010  RH  030%=      5-min Rain = 0
KKN1 242031Z 02011G16KT 17/M01 A301 RMK A01 T01661010  RH  030%=      5-min Rain = 0
KKN1 242032Z 01016G21KT 17/M01 A301 RMK A01 T01651010  RH  030%=      5-min Rain = 0
KKN1 242033Z 01013KT 17/M01 A301 RMK A01 T01651010  RH  030%=      5-min Rain = 0
KKN1 242034Z 36013KT 17/M01 A301 RMK A01 T01661008  RH  031%=      5-min Rain = 0
KKN1 242035Z 35012KT 17/M01 A301 RMK A01 T01681010  RH  030%=      5-min Rain = 0
KKN1 242036Z 35011KT 17/M01 A301 RMK A01 T01691006  RH  030%=      5-min Rain = 0
KKN1 242037Z 01010KT 17/M01 A301 RMK A01 T01711008  RH  030%=      5-min Rain = 0
KKN1 242038Z 01012KT 17/M01 A301 RMK A01 T01721006  RH  030%=      5-min Rain = 0
KKN1 242039Z 02011KT 17/M00 A301 RMK A01 T01711004  RH  030%=      5-min Rain = 0
KKN1 242040Z 03014KT 17/M00 A301 RMK A01 T01711003  RH  031%=      5-min Rain = 0
KKN1 242041Z 04013G20KT 17/M00 A301 RMK A01 T01711003  RH  031%=      5-min Rain = 0
KKN1 242042Z 03018KT 17/M00 A301 RMK A01 T01721003  RH  031%=      5-min Rain = 0
KKN1 242043Z 02018KT 17/M01 A301 RMK A01 T01711005  RH  030%=      5-min Rain = 0
KKN1 242044Z 02016G21KT 17/M01 A301 RMK A01 T01701007  RH  030%=      5-min Rain = 0
KKN1 242045Z 02015KT 17/M01 A301 RMK A01 T01691005  RH  031%=      5-min Rain = 0
KKN1 242046Z 02012KT 17/M01 A301 RMK A01 T01691005  RH  031%=      5-min Rain = 0
KKN1 242047Z 02010KT 17/M01 A301 RMK A01 T01691010  RH  030%=      5-min Rain = 0
KKN1 242048Z 02009KT 17/M01 A301 RMK A01 T01671009  RH  030%=      5-min Rain = 0
KKN1 242049Z 02009KT 17/M01 A301 RMK A01 T01671010  RH  030%=      5-min Rain = 0
KKN1 242050Z 05014KT 17/M01 A301 RMK A01 T01681005  RH  031%=      5-min Rain = 0
KKN1 242051Z 04012G17KT 17/M01 A301 RMK A01 T01691005  RH  031%=      5-min Rain = 0
KKN1 242052Z 04015G20KT 17/M00 A301 RMK A01 T01701004  RH  031%=      5-min Rain = 0
KKN1 242053Z 04015G20KT 17/M00 A301 RMK A01 T01711003  RH  031%=      5-min Rain = 0
KKN1 242054Z 04016G21KT 17/M00 A301 RMK A01 T01721004  RH  030%=      5-min Rain = 0
KKN1 242055Z 03018KT 17/M01 A301 RMK A01 T01711007  RH  030%=      5-min Rain = 0
KKN1 242056Z 03017KT 17/M01 A301 RMK A01 T01701009  RH  030%=      5-min Rain = 0
KKN1 242057Z 03015KT 17/M01 A301 RMK A01 T01691008  RH  030%=      5-min Rain = 0
KKN1 242058Z 02014KT 17/M01 A301 RMK A01 T01691007  RH  030%=      5-min Rain = 0
KKN1 242059Z 02013G18KT 17/M01 A301 RMK A01 T01691010  RH  030%=      5-min Rain = 0
KKN1 242100Z 02012KT 17/M01 A301 RMK A01 T01681009  RH  030%=      5-min Rain = 0
KKN1 242101Z 03010G15KT 17/M00 A3009 RMK A01 T01681004  RH  031%=      5-min Rain = 0
KKN1 242102Z 02010KT 17/M01 A3009 RMK A01 T01701006  RH  030%=      5-min Rain = 0
KKN1 242103Z 03014G20KT 17/M01 A3009 RMK A01 T01701007  RH  030%=      5-min Rain = 0
KKN1 242104Z 02015G21KT 17/M01 A3009 RMK A01 T01701005  RH  030%=      5-min Rain = 0
KKN1 242105Z 03009KT 17/M00 A3009 RMK A01 T01711003  RH  031%=      5-min Rain = 0
KKN1 242106Z 02010KT 17/00 A3009 RMK A01 T01730002  RH  031%=      5-min Rain = 0
KKN1 242107Z 04010KT 18/M00 A3009 RMK A01 T01761001  RH  030%=      5-min Rain = 0
KKN1 242108Z 02009KT 18/M00 A3009 RMK A01 T01751002  RH  030%=      5-min Rain = 0
KKN1 242109Z 02011G16KT 18/M00 A3009 RMK A01 T01751003  RH  030%=      5-min Rain = 0
KKN1 242110Z 03013G18KT 18/M00 A3009 RMK A01 T01761002  RH  030%=      5-min Rain = 0
KKN1 242111Z 03014G19KT 18/M01 A3009 RMK A01 T01771005  RH  029%=      5-min Rain = 0
KKN1 242112Z 02016KT 18/M01 A3009 RMK A01 T01761007  RH  029%=      5-min Rain = 0
KKN1 242113Z 03015G20KT 17/M01 A3009 RMK A01 T01741007  RH  029%=      5-min Rain = 0
KKN1 242114Z 02014G19KT 17/M01 A3009 RMK A01 T01731008  RH  029%=      5-min Rain = 0
KKN1 242115Z 02014KT 17/M01 A3009 RMK A01 T01711007  RH  030%=      5-min Rain = 0
KKN1 242116Z 02014G19KT 17/M01 A3009 RMK A01 T01711009  RH  029%=      5-min Rain = 0
KKN1 242117Z 02012KT 17/M01 A3009 RMK A01 T01701010  RH  029%=      5-min Rain = 0
KKN1 242118Z 03011KT 17/M01 A3009 RMK A01 T01681012  RH  029%=      5-min Rain = 0
KKN1 242119Z 02009KT 17/M01 A3009 RMK A01 T01671012  RH  029%=      5-min Rain = 0
KKN1 242120Z 03008KT 17/M00 A3009 RMK A01 T01691003  RH  031%=      5-min Rain = 0
KKN1 242121Z 04013KT 17/00 A3009 RMK A01 T01730002  RH  031%=      5-min Rain = 0
KKN1 242122Z 03016KT 18/M00 A3009 RMK A01 T01761002  RH  030%=      5-min Rain = 0
KKN1 242123Z 02014KT 17/M01 A3009 RMK A01 T01731009  RH  029%=      5-min Rain = 0
KKN1 242124Z 02013KT 17/M01 A3009 RMK A01 T01701009  RH  030%=      5-min Rain = 0
KKN1 242125Z 03011KT 17/M01 A3009 RMK A01 T01691011  RH  029%=      5-min Rain = 0
KKN1 242126Z 02012KT 17/M01 A3009 RMK A01 T01691008  RH  030%=      5-min Rain = 0
KKN1 242127Z 03014KT 17/M01 A3009 RMK A01 T01701009  RH  030%=      5-min Rain = 0
KKN1 242128Z 04013KT 17/M01 A3009 RMK A01 T01711010  RH  029%=      5-min Rain = 0
KKN1 242129Z 04014KT 17/M01 A3009 RMK A01 T01711008  RH  029%=      5-min Rain = 0
KKN1 242130Z 04013KT 17/M01 A3009 RMK A01 T01721008  RH  029%=      5-min Rain = 0
KKN1 242131Z 05014KT 17/M01 A3009 RMK A01 T01721010  RH  029%=      5-min Rain = 0
KKN1 242132Z 03012G17KT 17/M01 A3009 RMK A01 T01701008  RH  030%=      5-min Rain = 0
KKN1 242133Z 02014KT 17/M01 A3009 RMK A01 T01701008  RH  030%=      5-min Rain = 0
KKN1 242134Z 02014KT 17/M01 A3009 RMK A01 T01701009  RH  030%=      5-min Rain = 0
KKN1 242135Z 03012KT 17/M01 A3009 RMK A01 T01701009  RH  030%=      5-min Rain = 0
KKN1 242136Z 02009KT 17/M01 A3009 RMK A01 T01691006  RH  030%=      5-min Rain = 0
KKN1 242137Z 04016G22KT 17/M00 A3009 RMK A01 T01721003  RH  031%=      5-min Rain = 0
KKN1 242138Z 03017KT 17/M01 A3009 RMK A01 T01731006  RH  030%=      5-min Rain = 0
KKN1 242139Z 03017KT 17/M01 A3009 RMK A01 T01721013  RH  028%=      5-min Rain = 0
KKN1 242140Z 04014KT 17/M01 A3009 RMK A01 T01701012  RH  029%=      5-min Rain = 0
KKN1 242141Z 04014KT 17/M01 A3009 RMK A01 T01701010  RH  030%=      5-min Rain = 0
KKN1 242142Z 04012G17KT 17/M01 A3009 RMK A01 T01691009  RH  030%=      5-min Rain = 0
KKN1 242143Z 04017KT 17/M01 A3009 RMK A01 T01711006  RH  030%=      5-min Rain = 0
KKN1 242144Z 04017KT 17/M01 A3009 RMK A01 T01711007  RH  030%=      5-min Rain = 0
KKN1 242145Z 04018G23KT 17/M01 A3009 RMK A01 T01711008  RH  030%=      5-min Rain = 0
KKN1 242146Z 03015KT 17/M01 A3009 RMK A01 T01701012  RH  029%=      5-min Rain = 0
KKN1 242147Z 03015KT 17/M01 A3009 RMK A01 T01691014  RH  029%=      5-min Rain = 0
KKN1 242148Z 03012KT 17/M02 A3009 RMK A01 T01681016  RH  028%=      5-min Rain = 0
KKN1 242149Z 03013KT 17/M01 A3009 RMK A01 T01681013  RH  029%=      5-min Rain = 0
KKN1 242150Z 03014KT 17/M02 A3009 RMK A01 T01681015  RH  029%=      5-min Rain = 0
KKN1 242151Z 04012KT 17/M01 A3009 RMK A01 T01681011  RH  029%=      5-min Rain = 0
KKN1 242152Z 04015G21KT 17/M01 A3009 RMK A01 T01701013  RH  029%=      5-min Rain = 0
KKN1 242153Z 04014KT 17/M01 A3009 RMK A01 T01691014  RH  029%=      5-min Rain = 0
KKN1 242154Z 03014KT 17/M02 A3009 RMK A01 T01681015  RH  029%=      5-min Rain = 0
KKN1 242155Z 01009KT 17/M01 A3009 RMK A01 T01691009  RH  030%=      5-min Rain = 0
KKN1 242156Z 01014KT 17/M01 A3009 RMK A01 T01721013  RH  028%=      5-min Rain = 0
KKN1 242157Z 03015KT 17/M02 A3009 RMK A01 T01721016  RH  028%=      5-min Rain = 0
KKN1 242158Z 04014KT 17/M02 A3009 RMK A01 T01701017  RH  028%=      5-min Rain = 0
KKN1 242159Z 03014KT 17/M02 A3009 RMK A01 T01691016  RH  028%=      5-min Rain = 0
KKN1 242200Z 03014G19KT 17/M02 A3009 RMK A01 T01691016  RH  028%=      5-min Rain = 0
KKN1 242201Z 03016G21KT 17/M02 A3009 RMK A01 T01691019  RH  028%=      5-min Rain = 0
KKN1 242202Z 04016G21KT 17/M02 A3009 RMK A01 T01691017  RH  028%=      5-min Rain = 0
KKN1 242203Z 04015KT 17/M02 A3009 RMK A01 T01691018  RH  028%=      5-min Rain = 0
KKN1 242204Z 05014KT 17/M02 A3009 RMK A01 T01681020  RH  028%=      5-min Rain = 0
KKN1 242205Z 04015KT 17/M02 A3009 RMK A01 T01681018  RH  028%=      5-min Rain = 0
KKN1 242206Z 03015KT 17/M02 A3009 RMK A01 T01681017  RH  028%=      5-min Rain = 0
KKN1 242207Z 03013KT 17/M02 A3009 RMK A01 T01681017  RH  028%=      5-min Rain = 0
KKN1 242208Z 02016KT 17/M02 A3009 RMK A01 T01681017  RH  028%=      5-min Rain = 0
KKN1 242209Z 03017KT 17/M02 A3009 RMK A01 T01681015  RH  029%=      5-min Rain = 0
KKN1 242210Z 03015KT 17/M02 A3009 RMK A01 T01681019  RH  028%=      5-min Rain = 0
KKN1 242211Z 03013KT 17/M02 A3009 RMK A01 T01671015  RH  029%=      5-min Rain = 0
KKN1 242212Z 02013KT 17/M02 A3009 RMK A01 T01681017  RH  028%=      5-min Rain = 0
KKN1 242213Z 03011KT 17/M02 A3009 RMK A01 T01681019  RH  028%=      5-min Rain = 0
KKN1 242214Z 02014G19KT 17/M02 A3008 RMK A01 T01681017  RH  028%=      5-min Rain = 0
KKN1 242215Z 02014KT 17/M02 A3008 RMK A01 T01681019  RH  028%=      5-min Rain = 0
KKN1 242216Z 04013KT 17/M02 A3009 RMK A01 T01681017  RH  028%=      5-min Rain = 0
KKN1 242217Z 03013KT 17/M02 A3008 RMK A01 T01681017  RH  028%=      5-min Rain = 0
KKN1 242218Z 04011KT 17/M01 A3009 RMK A01 T01681014  RH  029%=      5-min Rain = 0
KKN1 242219Z 03013KT 17/M02 A3008 RMK A01 T01701015  RH  028%=      5-min Rain = 0
KKN1 242220Z 02013KT 17/M02 A3008 RMK A01 T01701020  RH  027%=      5-min Rain = 0
KKN1 242221Z 02016G22KT 17/M02 A3008 RMK A01 T01691020  RH  027%=      5-min Rain = 0
KKN1 242222Z 03016G22KT 17/M02 A3009 RMK A01 T01681022  RH  027%=      5-min Rain = 0
KKN1 242223Z 03014KT 17/M02 A3009 RMK A01 T01681022  RH  027%=      5-min Rain = 0
KKN1 242224Z 03013KT 17/M02 A3009 RMK A01 T01671018  RH  028%=      5-min Rain = 0
KKN1 242225Z 02013KT 17/M02 A3009 RMK A01 T01671018  RH  028%=      5-min Rain = 0
KKN1 242226Z 02012KT 17/M02 A3009 RMK A01 T01681021  RH  027%=      5-min Rain = 0
KKN1 242227Z 03013KT 17/M02 A3008 RMK A01 T01681020  RH  028%=      5-min Rain = 0
KKN1 242228Z 03011KT 17/M02 A3008 RMK A01 T01671019  RH  028%=      5-min Rain = 0
KKN1 242229Z 03012KT 17/M02 A3008 RMK A01 T01681020  RH  028%=      5-min Rain = 0
KKN1 242230Z 03012KT 17/M02 A3008 RMK A01 T01681016  RH  028%=      5-min Rain = 0
KKN1 242231Z 04013G20KT 17/M02 A3008 RMK A01 T01681016  RH  028%=      5-min Rain = 0
KKN1 242232Z 05014KT 17/M02 A3009 RMK A01 T01681021  RH  027%=      5-min Rain = 0
KKN1 242233Z 04015KT 17/M02 A3009 RMK A01 T01671020  RH  028%=      5-min Rain = 0
KKN1 242234Z 03014KT 17/M02 A3008 RMK A01 T01671023  RH  027%=      5-min Rain = 0
KKN1 242235Z 03013KT 17/M02 A3008 RMK A01 T01661024  RH  027%=      5-min Rain = 0
KKN1 242236Z 04013G19KT 17/M02 A3009 RMK A01 T01661019  RH  028%=      5-min Rain = 0
KKN1 242237Z 04013KT 17/M02 A3009 RMK A01 T01661020  RH  028%=      5-min Rain = 0
KKN1 242238Z 03015KT 17/M02 A3009 RMK A01 T01671019  RH  028%=      5-min Rain = 0
KKN1 242239Z 04015KT 17/M02 A3009 RMK A01 T01671023  RH  027%=      5-min Rain = 0
KKN1 242240Z 05014KT 17/M02 A3009 RMK A01 T01661024  RH  027%=      5-min Rain = 0
KKN1 242241Z 04015KT 17/M03 A3009 RMK A01 T01661025  RH  027%=      5-min Rain = 0
KKN1 242242Z 04015KT 17/M02 A3009 RMK A01 T01651023  RH  027%=      5-min Rain = 0
KKN1 242243Z 04013KT 17/M03 A3009 RMK A01 T01651025  RH  027%=      5-min Rain = 0
KKN1 242244Z 04012KT 17/M02 A3009 RMK A01 T01651022  RH  028%=      5-min Rain = 0
KKN1 242245Z 04013KT 17/M02 A3009 RMK A01 T01651024  RH  027%=      5-min Rain = 0
KKN1 242246Z 04013KT 17/M02 A3009 RMK A01 T01651023  RH  027%=      5-min Rain = 0
KKN1 242247Z 04011KT 17/M02 A3009 RMK A01 T01661021  RH  028%=      5-min Rain = 0
KKN1 242248Z 04014G21KT 17/M02 A3009 RMK A01 T01671018  RH  028%=      5-min Rain = 0
KKN1 242249Z 04015KT 17/M02 A3009 RMK A01 T01671022  RH  027%=      5-min Rain = 0
KKN1 242250Z 03012G17KT 17/M02 A3009 RMK A01 T01661022  RH  028%=      5-min Rain = 0
KKN1 242251Z 03012KT 17/M02 A3009 RMK A01 T01651020  RH  028%=      5-min Rain = 0
KKN1 242252Z 03011G16KT 17/M02 A3009 RMK A01 T01651021  RH  028%=      5-min Rain = 0
KKN1 242253Z 03010KT 17/M03 A3009 RMK A01 T01651026  RH  027%=      5-min Rain = 0
KKN1 242254Z 02009KT 17/M02 A3009 RMK A01 T01651022  RH  028%=      5-min Rain = 0
KKN1 242255Z 02011KT 17/M02 A3009 RMK A01 T01651019  RH  028%=      5-min Rain = 0
KKN1 242256Z 03014KT 17/M02 A3009 RMK A01 T01651023  RH  028%=      5-min Rain = 0
KKN1 242257Z 02011G17KT 17/M02 A3009 RMK A01 T01651023  RH  028%=      5-min Rain = 0
KKN1 242258Z 02010KT 17/M02 A3009 RMK A01 T01651018  RH  028%=      5-min Rain = 0
KKN1 242259Z 03009KT 17/M02 A3009 RMK A01 T01661019  RH  028%=      5-min Rain = 0
KKN1 242300Z 03012G18KT 17/M02 A3009 RMK A01 T01661016  RH  029%=      5-min Rain = 0
KKN1 242301Z 02015KT 17/M02 A3009 RMK A01 T01661022  RH  028%=      5-min Rain = 0
KKN1 242302Z 03014KT 16/M02 A3009 RMK A01 T01641024  RH  027%=      5-min Rain = 0
KKN1 242303Z 02012KT 16/M02 A3009 RMK A01 T01631024  RH  028%=      5-min Rain = 0
KKN1 242304Z 02013KT 16/M02 A3009 RMK A01 T01631022  RH  028%=      5-min Rain = 0
KKN1 242305Z 02012KT 16/M03 A3009 RMK A01 T01631026  RH  027%=      5-min Rain = 0
KKN1 242306Z 02014KT 16/M03 A3009 RMK A01 T01631027  RH  027%=      5-min Rain = 0
KKN1 242307Z 03012KT 16/M02 A3009 RMK A01 T01631023  RH  028%=      5-min Rain = 0
KKN1 242308Z 03010KT 16/M02 A3009 RMK A01 T01631018  RH  029%=      5-min Rain = 0
KKN1 242309Z 03011G16KT 16/M02 A3009 RMK A01 T01631018  RH  029%=      5-min Rain = 0
KKN1 242310Z 03011KT 16/M02 A3009 RMK A01 T01641020  RH  028%=      5-min Rain = 0
KKN1 242311Z 03012KT 16/M02 A3009 RMK A01 T01631021  RH  028%=      5-min Rain = 0
KKN1 242312Z 03013KT 16/M02 A3009 RMK A01 T01631021  RH  028%=      5-min Rain = 0
KKN1 242313Z 03013KT 16/M03 A3009 RMK A01 T01631025  RH  028%=      5-min Rain = 0
KKN1 242314Z 03011G16KT 16/M02 A3009 RMK A01 T01621023  RH  028%=      5-min Rain = 0
KKN1 242315Z 03014KT 16/M02 A3009 RMK A01 T01621024  RH  028%=      5-min Rain = 0
KKN1 242316Z 04013KT 16/M02 A3009 RMK A01 T01621024  RH  028%=      5-min Rain = 0
KKN1 242317Z 04011KT 16/M02 A3009 RMK A01 T01611022  RH  028%=      5-min Rain = 0
KKN1 242318Z 03011KT 16/M02 A3009 RMK A01 T01611018  RH  029%=      5-min Rain = 0
KKN1 242319Z 04008KT 16/M02 A3009 RMK A01 T01611021  RH  029%=      5-min Rain = 0
KKN1 242320Z 04012KT 16/M02 A3009 RMK A01 T01611018  RH  029%=      5-min Rain = 0
KKN1 242321Z 04011KT 16/M02 A3009 RMK A01 T01611023  RH  028%=      5-min Rain = 0
KKN1 242322Z 04010KT 16/M03 A3009 RMK A01 T01611025  RH  028%=      5-min Rain = 0
KKN1 242323Z 04011KT 16/M02 A3009 RMK A01 T01601024  RH  028%=      5-min Rain = 0
KKN1 242324Z 04011G16KT 16/M02 A3009 RMK A01 T01601024  RH  028%=      5-min Rain = 0
KKN1 242325Z 05013KT 16/M03 A3009 RMK A01 T01601027  RH  028%=      5-min Rain = 0
KKN1 242326Z 04012KT 16/M03 A3009 RMK A01 T01601029  RH  027%=      5-min Rain = 0
KKN1 242327Z 03012KT 16/M03 A3009 RMK A01 T01591027  RH  028%=      5-min Rain = 0
KKN1 242328Z 04012KT 16/M03 A3009 RMK A01 T01591029  RH  027%=      5-min Rain = 0
KKN1 242329Z 04011KT 16/M02 A3009 RMK A01 T01591024  RH  028%=      5-min Rain = 0
KKN1 242330Z 04013KT 16/M03 A3009 RMK A01 T01581026  RH  028%=      5-min Rain = 0
KKN1 242331Z 04012KT 16/M02 A3009 RMK A01 T01581024  RH  029%=      5-min Rain = 0
KKN1 242332Z 04013KT 16/M03 A3009 RMK A01 T01571025  RH  029%=      5-min Rain = 0
KKN1 242333Z 04010KT 16/M02 A3009 RMK A01 T01571024  RH  029%=      5-min Rain = 0
KKN1 242334Z 04012KT 16/M02 A3009 RMK A01 T01561024  RH  029%=      5-min Rain = 0
KKN1 242335Z 04011KT 16/M02 A3009 RMK A01 T01561024  RH  029%=      5-min Rain = 0
KKN1 242336Z 04011KT 16/M03 A3009 RMK A01 T01561025  RH  029%=      5-min Rain = 0
KKN1 242337Z 04012KT 16/M02 A3009 RMK A01 T01561024  RH  029%=      5-min Rain = 0
KKN1 242338Z 04011KT 16/M03 A3009 RMK A01 T01561027  RH  028%=      5-min Rain = 0
KKN1 242339Z 04011KT 16/M03 A3009 RMK A01 T01551031  RH  028%=      5-min Rain = 0
KKN1 242340Z 04010KT 16/M03 A3009 RMK A01 T01551030  RH  028%=      5-min Rain = 0
KKN1 242341Z 04008KT 16/M03 A3009 RMK A01 T01551026  RH  029%=      5-min Rain = 0
KKN1 242342Z 05007G12KT 16/M02 A3009 RMK A01 T01551021  RH  030%=      5-min Rain = 0
KKN1 242343Z 05010KT 15/M02 A301 RMK A01 T01541020  RH  030%=      5-min Rain = 0
KKN1 242344Z 04011KT 15/M03 A301 RMK A01 T01541027  RH  029%=      5-min Rain = 0
KKN1 242345Z 04012KT 15/M02 A301 RMK A01 T01541023  RH  029%=      5-min Rain = 0
KKN1 242346Z 04013KT 15/M03 A301 RMK A01 T01541026  RH  029%=      5-min Rain = 0
KKN1 242347Z 04012KT 15/M03 A301 RMK A01 T01531026  RH  029%=      5-min Rain = 0
KKN1 242348Z 04012KT 15/M02 A301 RMK A01 T01531024  RH  029%=      5-min Rain = 0
KKN1 242349Z 04011KT 15/M03 A301 RMK A01 T01521026  RH  029%=      5-min Rain = 0
KKN1 242350Z 04010KT 15/M03 A301 RMK A01 T01521025  RH  030%=      5-min Rain = 0
KKN1 242351Z 04009KT 15/M02 A301 RMK A01 T01511023  RH  030%=      5-min Rain = 0
KKN1 242352Z 03009KT 15/M02 A301 RMK A01 T01501022  RH  030%=      5-min Rain = 0
KKN1 242353Z 04010KT 15/M03 A301 RMK A01 T01501025  RH  030%=      5-min Rain = 0
KKN1 242354Z 04009KT 15/M02 A301 RMK A01 T01501023  RH  030%=      5-min Rain = 0
KKN1 242355Z 03009KT 15/M02 A301 RMK A01 T01491022  RH  031%=      5-min Rain = 0
KKN1 242356Z 03008KT 15/M02 A301 RMK A01 T01491023  RH  031%=      5-min Rain = 0
KKN1 242357Z 04009KT 15/M03 A301 RMK A01 T01491025  RH  030%=      5-min Rain = 0
KKN1 242358Z 04008KT 15/M02 A301 RMK A01 T01481022  RH  031%=      5-min Rain = 0
KKN1 242359Z 04007KT 15/M02 A301 RMK A01 T01481021  RH  031%=      5-min Rain = 0
KKN1 250000Z 04009KT 15/M02 A301 RMK A01 T01471019  RH  032%=      5-min Rain = 0
KKN1 250001Z 04010KT 15/M02 A301 RMK A01 T01461024  RH  031%=      5-min Rain = 0
KKN1 250002Z 04008KT 15/M02 A301 RMK A01 T01461024  RH  031%=      5-min Rain = 0
KKN1 250003Z 03009KT 15/M02 A301 RMK A01 T01461020  RH  032%=      5-min Rain = 0
KKN1 250004Z 04008KT 15/M02 A301 RMK A01 T01451022  RH  031%=      5-min Rain = 0
KKN1 250005Z 04008KT 15/M02 A301 RMK A01 T01451023  RH  031%=      5-min Rain = 0
KKN1 250006Z 04008KT 15/M02 A301 RMK A01 T01451021  RH  032%=      5-min Rain = 0
KKN1 250007Z 04007KT 14/M02 A301 RMK A01 T01441020  RH  032%=      5-min Rain = 0
KKN1 250008Z 04007KT 14/M02 A301 RMK A01 T01431019  RH  033%=      5-min Rain = 0
KKN1 250009Z 04007KT 14/M02 A301 RMK A01 T01411017  RH  034%=      5-min Rain = 0
KKN1 250010Z 04008KT 14/M02 A3011 RMK A01 T01401017  RH  034%=      5-min Rain = 0
KKN1 250011Z 04007KT 14/M02 A3011 RMK A01 T01391018  RH  034%=      5-min Rain = 0
KKN1 250012Z 04008KT 14/M02 A3011 RMK A01 T01391018  RH  034%=      5-min Rain = 0
KKN1 250013Z 04008KT 14/M02 A3011 RMK A01 T01391018  RH  034%=      5-min Rain = 0
KKN1 250014Z 03008KT 14/M02 A3011 RMK A01 T01381018  RH  034%=      5-min Rain = 0
KKN1 250015Z 03008KT 14/M02 A3011 RMK A01 T01381019  RH  034%=      5-min Rain = 0
KKN1 250016Z 03009KT 14/M02 A3011 RMK A01 T01371020  RH  034%=      5-min Rain = 0
KKN1 250017Z 03010KT 14/M02 A3011 RMK A01 T01381024  RH  033%=      5-min Rain = 0
KKN1 250018Z 03008KT 14/M03 A3011 RMK A01 T01381025  RH  032%=      5-min Rain = 0
KKN1 250019Z 03008KT 14/M02 A3011 RMK A01 T01381022  RH  033%=      5-min Rain = 0
KKN1 250020Z 03009KT 14/M02 A3011 RMK A01 T01371022  RH  033%=      5-min Rain = 0
KKN1 250021Z 03008KT 14/M02 A3011 RMK A01 T01361024  RH  033%=      5-min Rain = 0
KKN1 250022Z 03007KT 14/M02 A3011 RMK A01 T01351021  RH  034%=      5-min Rain = 0
KKN1 250023Z 03009KT 13/M02 A3011 RMK A01 T01341024  RH  033%=      5-min Rain = 0
KKN1 250024Z 03008KT 13/M03 A3011 RMK A01 T01341026  RH  033%=      5-min Rain = 0
KKN1 250025Z 03008KT 13/M02 A3011 RMK A01 T01341024  RH  033%=      5-min Rain = 0
KKN1 250026Z 03008KT 13/M03 A3011 RMK A01 T01331025  RH  033%=      5-min Rain = 0
KKN1 250027Z 03008KT 13/M03 A3011 RMK A01 T01331025  RH  033%=      5-min Rain = 0
KKN1 250028Z 03008KT 13/M02 A3011 RMK A01 T01331024  RH  034%=      5-min Rain = 0
KKN1 250029Z 03007KT 13/M02 A3011 RMK A01 T01321022  RH  034%=      5-min Rain = 0
KKN1 250030Z 03007KT 13/M02 A3011 RMK A01 T01301022  RH  035%=      5-min Rain = 0
KKN1 250031Z 04007KT 13/M02 A3011 RMK A01 T01281023  RH  035%=      5-min Rain = 0
KKN1 250032Z 03007KT 13/M02 A3011 RMK A01 T01281023  RH  035%=      5-min Rain = 0
KKN1 250033Z 03007KT 13/M02 A3011 RMK A01 T01281022  RH  035%=      5-min Rain = 0
KKN1 250034Z 04007KT 13/M02 A3012 RMK A01 T01271022  RH  035%=      5-min Rain = 0
KKN1 250035Z 03007KT 13/M02 A3012 RMK A01 T01271021  RH  036%=      5-min Rain = 0
KKN1 250036Z 03007KT 13/M02 A3012 RMK A01 T01261021  RH  036%=      5-min Rain = 0
KKN1 250037Z 04006KT 13/M02 A3012 RMK A01 T01251019  RH  037%=      5-min Rain = 0
KKN1 250038Z 04006KT 12/M02 A3012 RMK A01 T01221017  RH  038%=      5-min Rain = 0
KKN1 250039Z 04006KT 12/M02 A3012 RMK A01 T01201016  RH  039%=      5-min Rain = 0
KKN1 250040Z 04007KT 12/M02 A3012 RMK A01 T01181017  RH  039%=      5-min Rain = 0
KKN1 250041Z 04007KT 12/M02 A3012 RMK A01 T01181017  RH  039%=      5-min Rain = 0
KKN1 250042Z 04006KT 12/M02 A3012 RMK A01 T01181017  RH  039%=      5-min Rain = 0
KKN1 250043Z 04006KT 12/M02 A3012 RMK A01 T01171016  RH  040%=      5-min Rain = 0
KKN1 250044Z 04006KT 12/M02 A3012 RMK A01 T01161016  RH  040%=      5-min Rain = 0
KKN1 250045Z 04006KT 12/M02 A3012 RMK A01 T01151016  RH  040%=      5-min Rain = 0
KKN1 250046Z 04006KT 11/M02 A3012 RMK A01 T01141016  RH  040%=      5-min Rain = 0
KKN1 250047Z 04006KT 11/M02 A3012 RMK A01 T01131016  RH  041%=      5-min Rain = 0
KKN1 250048Z 04005KT 11/M02 A3012 RMK A01 T01121016  RH  041%=      5-min Rain = 0
KKN1 250049Z 04006KT 11/M02 A3013 RMK A01 T01111016  RH  041%=      5-min Rain = 0
KKN1 250050Z 05005KT 11/M02 A3013 RMK A01 T01101016  RH  042%=      5-min Rain = 0
KKN1 250051Z 05004KT 11/M01 A3013 RMK A01 T01081014  RH  042%=      5-min Rain = 0
KKN1 250052Z 04005KT 11/M01 A3013 RMK A01 T01071014  RH  043%=      5-min Rain = 0
KKN1 250053Z 04005KT 11/M02 A3013 RMK A01 T01061015  RH  043%=      5-min Rain = 0
KKN1 250054Z 04005KT 11/M02 A3013 RMK A01 T01051016  RH  043%=      5-min Rain = 0
KKN1 250055Z 04006KT 11/M02 A3013 RMK A01 T01051016  RH  043%=      5-min Rain = 0
KKN1 250056Z 04006KT 11/M02 A3013 RMK A01 T01051016  RH  043%=      5-min Rain = 0
KKN1 250057Z 04006KT 11/M02 A3013 RMK A01 T01051017  RH  043%=      5-min Rain = 0
KKN1 250058Z 04006KT 10/M02 A3013 RMK A01 T01041016  RH  043%=      5-min Rain = 0
KKN1 250059Z 04005KT 10/M02 A3013 RMK A01 T01021016  RH  044%=      5-min Rain = 0
KKN1 250100Z 04005KT 10/M02 A3013 RMK A01 T01001015  RH  045%=      5-min Rain = 0
KKN1 250101Z 05004KT 10/M01 A3013 RMK A01 T00981013  RH  046%=      5-min Rain = 0
KKN1 250102Z 05005KT 10/M01 A3013 RMK A01 T00971014  RH  046%=      5-min Rain = 0
KKN1 250103Z 05005KT 10/M02 A3013 RMK A01 T00991016  RH  045%=      5-min Rain = 0
KKN1 250104Z 04005KT 10/M02 A3014 RMK A01 T01001015  RH  045%=      5-min Rain = 0
KKN1 250105Z 04005KT 10/M02 A3014 RMK A01 T01001015  RH  044%=      5-min Rain = 0
KKN1 250106Z 04005KT 10/M01 A3014 RMK A01 T01001014  RH  045%=      5-min Rain = 0
KKN1 250107Z 04004KT 10/M01 A3014 RMK A01 T00991013  RH  046%=      5-min Rain = 0
KKN1 250108Z 04004KT 10/M02 A3014 RMK A01 T00981015  RH  045%=      5-min Rain = 0
KKN1 250109Z 04004KT 10/M02 A3014 RMK A01 T00991016  RH  045%=      5-min Rain = 0
KKN1 250110Z 04004KT 10/M02 A3014 RMK A01 T00991016  RH  045%=      5-min Rain = 0
KKN1 250111Z 04004KT 10/M02 A3014 RMK A01 T01001016  RH  044%=      5-min Rain = 0
KKN1 250112Z 03004KT 10/M02 A3014 RMK A01 T01001017  RH  044%=      5-min Rain = 0
KKN1 250113Z 03005KT 10/M02 A3015 RMK A01 T01011016  RH  044%=      5-min Rain = 0
KKN1 250114Z 03005KT 10/M02 A3015 RMK A01 T01001016  RH  044%=      5-min Rain = 0
KKN1 250115Z 03005KT 10/M02 A3015 RMK A01 T00991016  RH  044%=      5-min Rain = 0
KKN1 250116Z 02005KT 10/M02 A3015 RMK A01 T00991016  RH  045%=      5-min Rain = 0
KKN1 250117Z 03005KT 10/M02 A3015 RMK A01 T00981016  RH  045%=      5-min Rain = 0
KKN1 250118Z 03005KT 10/M02 A3015 RMK A01 T00981017  RH  044%=      5-min Rain = 0
KKN1 250119Z 03005KT 10/M02 A3015 RMK A01 T00981019  RH  044%=      5-min Rain = 0
KKN1 250120Z 03005KT 10/M02 A3015 RMK A01 T00991020  RH  043%=      5-min Rain = 0
KKN1 250121Z 03005KT 10/M02 A3015 RMK A01 T01001020  RH  043%=      5-min Rain = 0
KKN1 250122Z 03005KT 10/M02 A3015 RMK A01 T01001020  RH  043%=      5-min Rain = 0
KKN1 250123Z 03005KT 10/M02 A3015 RMK A01 T01001020  RH  043%=      5-min Rain = 0
KKN1 250124Z 03005KT 10/M02 A3015 RMK A01 T01001020  RH  043%=      5-min Rain = 0
KKN1 250125Z 03005KT 10/M02 A3015 RMK A01 T00991020  RH  043%=      5-min Rain = 0
KKN1 250126Z 03005KT 10/M02 A3015 RMK A01 T00991020  RH  043%=      5-min Rain = 0
KKN1 250127Z 03005KT 10/M02 A3015 RMK A01 T00981020  RH  043%=      5-min Rain = 0
KKN1 250128Z 03005KT 10/M02 A3015 RMK A01 T00981020  RH  044%=      5-min Rain = 0
KKN1 250129Z 03006KT 10/M02 A3015 RMK A01 T00971020  RH  044%=      5-min Rain = 0
KKN1 250130Z 03006KT 10/M02 A3015 RMK A01 T00971020  RH  044%=      5-min Rain = 0
KKN1 250131Z 03006KT 10/M02 A3015 RMK A01 T00971020  RH  044%=      5-min Rain = 0
KKN1 250132Z 03007KT 10/M02 A3015 RMK A01 T00961020  RH  044%=      5-min Rain = 0
KKN1 250133Z 03007KT 10/M02 A3015 RMK A01 T00961022  RH  044%=      5-min Rain = 0
KKN1 250134Z 03007KT 10/M02 A3015 RMK A01 T00961021  RH  044%=      5-min Rain = 0
KKN1 250135Z 03007KT 10/M02 A3015 RMK A01 T00961021  RH  044%=      5-min Rain = 0
KKN1 250136Z 04008KT 10/M02 A3015 RMK A01 T00951021  RH  044%=      5-min Rain = 0
KKN1 250137Z 03007KT 10/M02 A3015 RMK A01 T00961021  RH  044%=      5-min Rain = 0
KKN1 250138Z 04007KT 10/M02 A3015 RMK A01 T00971021  RH  044%=      5-min Rain = 0
KKN1 250139Z 04007KT 10/M02 A3015 RMK A01 T00981021  RH  043%=      5-min Rain = 0
KKN1 250140Z 03006KT 10/M02 A3015 RMK A01 T00981020  RH  044%=      5-min Rain = 0
KKN1 250141Z 04007KT 10/M02 A3015 RMK A01 T00981020  RH  043%=      5-min Rain = 0
KKN1 250142Z 03006KT 10/M02 A3015 RMK A01 T00981021  RH  043%=      5-min Rain = 0
KKN1 250143Z 03006KT 10/M02 A3015 RMK A01 T00981021  RH  043%=      5-min Rain = 0
KKN1 250144Z 03007KT 10/M02 A3015 RMK A01 T00981021  RH  043%=      5-min Rain = 0
KKN1 250145Z 03007KT 10/M02 A3015 RMK A01 T00971021  RH  044%=      5-min Rain = 0
KKN1 250146Z 03007KT 10/M02 A3015 RMK A01 T00971021  RH  044%=      5-min Rain = 0
KKN1 250147Z 03007KT 10/M02 A3015 RMK A01 T00961021  RH  044%=      5-min Rain = 0
KKN1 250148Z 03007KT 10/M02 A3015 RMK A01 T00961022  RH  043%=      5-min Rain = 0
KKN1 250149Z 03008KT 10/M02 A3015 RMK A01 T00961022  RH  043%=      5-min Rain = 0
KKN1 250150Z 03008KT 10/M02 A3015 RMK A01 T00971023  RH  043%=      5-min Rain = 0
KKN1 250151Z 03008KT 10/M02 A3015 RMK A01 T00971022  RH  043%=      5-min Rain = 0
KKN1 250152Z 03008KT 10/M02 A3015 RMK A01 T00971023  RH  043%=      5-min Rain = 0
KKN1 250153Z 03008KT 10/M02 A3015 RMK A01 T00971023  RH  043%=      5-min Rain = 0
KKN1 250154Z 03008KT 10/M02 A3016 RMK A01 T00971023  RH  043%=      5-min Rain = 0
KKN1 250155Z 03008KT 10/M02 A3016 RMK A01 T00971023  RH  043%=      5-min Rain = 0
KKN1 250156Z 03008KT 10/M02 A3016 RMK A01 T00971023  RH  043%=      5-min Rain = 0
KKN1 250157Z 02008KT 10/M02 A3016 RMK A01 T00981024  RH  042%=      5-min Rain = 0
KKN1 250158Z 02007KT 10/M02 A3016 RMK A01 T00981024  RH  042%=      5-min Rain = 0
KKN1 250159Z 02008KT 10/M02 A3016 RMK A01 T00981024  RH  042%=      5-min Rain = 0
KKN1 250200Z 02007KT 10/M02 A3016 RMK A01 T00981024  RH  042%=      5-min Rain = 0
KKN1 250201Z 02007KT 10/M02 A3016 RMK A01 T00981024  RH  042%=      5-min Rain = 0
KKN1 250202Z 02007KT 10/M02 A3016 RMK A01 T00981024  RH  043%=      5-min Rain = 0
KKN1 250203Z 02007KT 10/M02 A3016 RMK A01 T00971024  RH  043%=      5-min Rain = 0
KKN1 250204Z 02007KT 10/M02 A3016 RMK A01 T00971024  RH  043%=      5-min Rain = 0
KKN1 250205Z 02007KT 10/M02 A3016 RMK A01 T00961024  RH  043%=      5-min Rain = 0
KKN1 250206Z 02007KT 10/M02 A3016 RMK A01 T00951023  RH  043%=      5-min Rain = 0
KKN1 250207Z 02006KT 10/M02 A3016 RMK A01 T00951023  RH  044%=      5-min Rain = 0
KKN1 250208Z 02007KT 09/M02 A3016 RMK A01 T00941024  RH  044%=      5-min Rain = 0
KKN1 250209Z 02007KT 09/M02 A3016 RMK A01 T00931024  RH  044%=      5-min Rain = 0
KKN1 250210Z 02007KT 09/M02 A3016 RMK A01 T00931024  RH  044%=      5-min Rain = 0
KKN1 250211Z 02007KT 09/M02 A3016 RMK A01 T00931024  RH  044%=      5-min Rain = 0
KKN1 250212Z 03007KT 09/M02 A3016 RMK A01 T00931024  RH  044%=      5-min Rain = 0
KKN1 250213Z 03008KT 09/M02 A3016 RMK A01 T00921024  RH  044%=      5-min Rain = 0
KKN1 250214Z 03008KT 09/M02 A3016 RMK A01 T00921023  RH  044%=      5-min Rain = 0
KKN1 250215Z 03008KT 09/M02 A3016 RMK A01 T00911024  RH  044%=      5-min Rain = 0
KKN1 250216Z 03008KT 09/M02 A3017 RMK A01 T00911024  RH  044%=      5-min Rain = 0
KKN1 250217Z 03008KT 09/M02 A3017 RMK A01 T00911023  RH  045%=      5-min Rain = 0
KKN1 250218Z 03008KT 09/M02 A3017 RMK A01 T00911024  RH  045%=      5-min Rain = 0
KKN1 250219Z 03008KT 09/M02 A3017 RMK A01 T00901024  RH  045%=      5-min Rain = 0
KKN1 250220Z 03008KT 09/M02 A3017 RMK A01 T00911024  RH  045%=      5-min Rain = 0
KKN1 250221Z 03008KT 09/M02 A3017 RMK A01 T00901024  RH  045%=      5-min Rain = 0
KKN1 250222Z 03008KT 09/M03 A3017 RMK A01 T00911025  RH  044%=      5-min Rain = 0
KKN1 250223Z 03008KT 09/M02 A3017 RMK A01 T00911024  RH  044%=      5-min Rain = 0
KKN1 250224Z 03008KT 09/M02 A3017 RMK A01 T00911024  RH  044%=      5-min Rain = 0
KKN1 250225Z 03008KT 09/M03 A3017 RMK A01 T00911025  RH  044%=      5-min Rain = 0
KKN1 250226Z 03008KT 09/M02 A3017 RMK A01 T00911024  RH  044%=      5-min Rain = 0
KKN1 250227Z 03008KT 09/M02 A3017 RMK A01 T00911024  RH  044%=      5-min Rain = 0
KKN1 250228Z 03008KT 09/M02 A3017 RMK A01 T00901024  RH  045%=      5-min Rain = 0
KKN1 250229Z 03007KT 09/M02 A3017 RMK A01 T00901024  RH  045%=      5-min Rain = 0
KKN1 250230Z 03007KT 09/M02 A3017 RMK A01 T00901024  RH  045%=      5-min Rain = 0
KKN1 250231Z 03007KT 09/M02 A3017 RMK A01 T00891024  RH  045%=      5-min Rain = 0
KKN1 250232Z 03008KT 09/M03 A3017 RMK A01 T00891025  RH  044%=      5-min Rain = 0
KKN1 250233Z 03007KT 09/M03 A3017 RMK A01 T00901025  RH  044%=      5-min Rain = 0
KKN1 250234Z 03007KT 09/M02 A3017 RMK A01 T00901024  RH  045%=      5-min Rain = 0
KKN1 250235Z 03007KT 09/M02 A3017 RMK A01 T00891024  RH  045%=      5-min Rain = 0
KKN1 250236Z 04007KT 09/M02 A3017 RMK A01 T00891024  RH  045%=      5-min Rain = 0
KKN1 250237Z 03007KT 09/M02 A3018 RMK A01 T00881023  RH  046%=      5-min Rain = 0
KKN1 250238Z 03007KT 09/M02 A3018 RMK A01 T00871022  RH  046%=      5-min Rain = 0
KKN1 250239Z 03007KT 09/M02 A3018 RMK A01 T00861022  RH  047%=      5-min Rain = 0
KKN1 250240Z 03007KT 08/M02 A3018 RMK A01 T00841022  RH  047%=      5-min Rain = 0
KKN1 250241Z 03007KT 08/M02 A3018 RMK A01 T00841022  RH  047%=      5-min Rain = 0
KKN1 250242Z 03007KT 08/M02 A3018 RMK A01 T00831022  RH  048%=      5-min Rain = 0
KKN1 250243Z 03007KT 08/M02 A3018 RMK A01 T00821022  RH  048%=      5-min Rain = 0
KKN1 250244Z 03007KT 08/M02 A3018 RMK A01 T00821022  RH  048%=      5-min Rain = 0
KKN1 250245Z 03007KT 08/M02 A3018 RMK A01 T00821022  RH  048%=      5-min Rain = 0
KKN1 250246Z 03007KT 08/M02 A3018 RMK A01 T00811022  RH  048%=      5-min Rain = 0
KKN1 250247Z 03008KT 08/M02 A3018 RMK A01 T00801022  RH  049%=      5-min Rain = 0
KKN1 250248Z 03008KT 08/M02 A3018 RMK A01 T00801022  RH  048%=      5-min Rain = 0
KKN1 250249Z 03008KT 08/M02 A3018 RMK A01 T00801022  RH  048%=      5-min Rain = 0
KKN1 250250Z 03008KT 08/M02 A3018 RMK A01 T00801023  RH  048%=      5-min Rain = 0
KKN1 250251Z 03008KT 08/M02 A3018 RMK A01 T00811023  RH  048%=      5-min Rain = 0
KKN1 250252Z 02008KT 08/M02 A3018 RMK A01 T00821024  RH  047%=      5-min Rain = 0
KKN1 250253Z 02008KT 08/M02 A3019 RMK A01 T00831024  RH  047%=      5-min Rain = 0
KKN1 250254Z 02008KT 08/M02 A3019 RMK A01 T00831024  RH  047%=      5-min Rain = 0
KKN1 250255Z 02007KT 08/M02 A3019 RMK A01 T00841024  RH  046%=      5-min Rain = 0
KKN1 250256Z 02008KT 08/M02 A3019 RMK A01 T00841024  RH  046%=      5-min Rain = 0
KKN1 250257Z 02007KT 08/M02 A3019 RMK A01 T00841024  RH  047%=      5-min Rain = 0
KKN1 250258Z 03008KT 08/M02 A3019 RMK A01 T00831023  RH  047%=      5-min Rain = 0
KKN1 250259Z 02008KT 08/M02 A3019 RMK A01 T00831024  RH  047%=      5-min Rain = 0
KKN1 250300Z 03008KT 08/M02 A3019 RMK A01 T00831024  RH  047%=      5-min Rain = 0
KKN1 250301Z 02008KT 08/M02 A3019 RMK A01 T00831024  RH  047%=      5-min Rain = 0
KKN1 250302Z 02008KT 08/M02 A3019 RMK A01 T00831024  RH  047%=      5-min Rain = 0
KKN1 250303Z 02008KT 08/M02 A3019 RMK A01 T00821024  RH  047%=      5-min Rain = 0
KKN1 250304Z 02008KT 08/M02 A3019 RMK A01 T00821024  RH  047%=      5-min Rain = 0
KKN1 250305Z 02008KT 08/M02 A302 RMK A01 T00821024  RH  047%=      5-min Rain = 0
KKN1 250306Z 03008KT 08/M03 A3019 RMK A01 T00831025  RH  047%=      5-min Rain = 0
KKN1 250307Z 03008KT 08/M02 A3019 RMK A01 T00821024  RH  047%=      5-min Rain = 0
KKN1 250308Z 02008KT 08/M02 A3019 RMK A01 T00821024  RH  047%=      5-min Rain = 0
KKN1 250309Z 03008KT 08/M02 A3019 RMK A01 T00821024  RH  047%=      5-min Rain = 0
KKN1 250310Z 03008KT 08/M02 A302 RMK A01 T00811024  RH  048%=      5-min Rain = 0
KKN1 250311Z 03008KT 08/M02 A302 RMK A01 T00801023  RH  048%=      5-min Rain = 0
KKN1 250312Z 03008KT 08/M02 A302 RMK A01 T00791023  RH  048%=      5-min Rain = 0
KKN1 250313Z 03008KT 08/M02 A302 RMK A01 T00791023  RH  048%=      5-min Rain = 0
KKN1 250314Z 03008KT 08/M02 A302 RMK A01 T00781023  RH  049%=      5-min Rain = 0
KKN1 250315Z 03008KT 08/M02 A302 RMK A01 T00781023  RH  049%=      5-min Rain = 0
KKN1 250316Z 03008KT 08/M02 A302 RMK A01 T00781023  RH  049%=      5-min Rain = 0
KKN1 250317Z 03008KT 08/M02 A302 RMK A01 T00781023  RH  049%=      5-min Rain = 0
KKN1 250318Z 03008KT 08/M02 A302 RMK A01 T00781023  RH  049%=      5-min Rain = 0
KKN1 250319Z 03008KT 08/M02 A302 RMK A01 T00781023  RH  049%=      5-min Rain = 0
KKN1 250320Z 03008KT 08/M02 A302 RMK A01 T00781023  RH  049%=      5-min Rain = 0
KKN1 250321Z 03008KT 08/M02 A302 RMK A01 T00771023  RH  049%=      5-min Rain = 0
KKN1 250322Z 03008KT 08/M02 A302 RMK A01 T00761022  RH  050%=      5-min Rain = 0
KKN1 250323Z 03008KT 08/M02 A302 RMK A01 T00751023  RH  050%=      5-min Rain = 0
KKN1 250324Z 03008KT 08/M02 A302 RMK A01 T00751023  RH  050%=      5-min Rain = 0
KKN1 250325Z 03007KT 07/M02 A302 RMK A01 T00741023  RH  050%=      5-min Rain = 0
KKN1 250326Z 03007KT 07/M02 A302 RMK A01 T00741023  RH  050%=      5-min Rain = 0
KKN1 250327Z 03007KT 07/M02 A3021 RMK A01 T00741022  RH  050%=      5-min Rain = 0
KKN1 250328Z 03007KT 07/M02 A3021 RMK A01 T00731022  RH  051%=      5-min Rain = 0
KKN1 250329Z 03007KT 07/M02 A3021 RMK A01 T00721022  RH  051%=      5-min Rain = 0
KKN1 250330Z 03007KT 07/M02 A3021 RMK A01 T00721022  RH  051%=      5-min Rain = 0
KKN1 250331Z 03007KT 07/M02 A3021 RMK A01 T00711022  RH  052%=      5-min Rain = 0
KKN1 250332Z 03007KT 07/M02 A3021 RMK A01 T00701022  RH  052%=      5-min Rain = 0
KKN1 250333Z 03007KT 07/M02 A3021 RMK A01 T00701022  RH  052%=      5-min Rain = 0
KKN1 250334Z 03006KT 07/M02 A3021 RMK A01 T00701022  RH  052%=      5-min Rain = 0
KKN1 250335Z 03007KT 07/M02 A3021 RMK A01 T00691021  RH  053%=      5-min Rain = 0
KKN1 250336Z 03007KT 07/M02 A3021 RMK A01 T00681022  RH  053%=      5-min Rain = 0
KKN1 250337Z 03007KT 07/M02 A3021 RMK A01 T00681021  RH  053%=      5-min Rain = 0
KKN1 250338Z 03007KT 07/M02 A3021 RMK A01 T00671021  RH  053%=      5-min Rain = 0
KKN1 250339Z 03007KT 07/M02 A3021 RMK A01 T00671021  RH  053%=      5-min Rain = 0
KKN1 250340Z 03007KT 07/M02 A3021 RMK A01 T00671021  RH  053%=      5-min Rain = 0
KKN1 250341Z 03007KT 07/M02 A3021 RMK A01 T00671021  RH  053%=      5-min Rain = 0
KKN1 250342Z 03007KT 07/M02 A3021 RMK A01 T00671021  RH  053%=      5-min Rain = 0
KKN1 250343Z 03007KT 07/M02 A3021 RMK A01 T00661021  RH  054%=      5-min Rain = 0
KKN1 250344Z 03007KT 07/M02 A3021 RMK A01 T00661021  RH  054%=      5-min Rain = 0
KKN1 250345Z 03007KT 07/M02 A3021 RMK A01 T00651021  RH  054%=      5-min Rain = 0
KKN1 250346Z 03007KT 07/M02 A3021 RMK A01 T00651021  RH  054%=      5-min Rain = 0
KKN1 250347Z 03007KT 06/M02 A3021 RMK A01 T00641022  RH  054%=      5-min Rain = 0
KKN1 250348Z 03007KT 06/M02 A3021 RMK A01 T00641022  RH  054%=      5-min Rain = 0
KKN1 250349Z 03007KT 07/M02 A3021 RMK A01 T00651022  RH  054%=      5-min Rain = 0
KKN1 250350Z 02007KT 07/M02 A3021 RMK A01 T00651022  RH  054%=      5-min Rain = 0
KKN1 250351Z 02007KT 07/M02 A3021 RMK A01 T00661023  RH  053%=      5-min Rain = 0
KKN1 250352Z 02007KT 07/M02 A3021 RMK A01 T00661023  RH  053%=      5-min Rain = 0
KKN1 250353Z 02006KT 07/M02 A3021 RMK A01 T00661022  RH  053%=      5-min Rain = 0
KKN1 250354Z 03006KT 07/M02 A3021 RMK A01 T00651022  RH  053%=      5-min Rain = 0
KKN1 250355Z 03006KT 07/M02 A3021 RMK A01 T00651022  RH  054%=      5-min Rain = 0
KKN1 250356Z 03007KT 06/M02 A3021 RMK A01 T00641022  RH  054%=      5-min Rain = 0
KKN1 250357Z 03007KT 06/M02 A3021 RMK A01 T00631022  RH  054%=      5-min Rain = 0
KKN1 250358Z 03007KT 06/M02 A3021 RMK A01 T00621022  RH  055%=      5-min Rain = 0
KKN1 250359Z 03007KT 06/M02 A3021 RMK A01 T00611022  RH  055%=      5-min Rain = 0
KKN1 250400Z 03007KT 06/M02 A3021 RMK A01 T00611021  RH  056%=      5-min Rain = 0
KKN1 250401Z 03007KT 06/M02 A3021 RMK A01 T00611021  RH  056%=      5-min Rain = 0
KKN1 250402Z 03007KT 06/M02 A3021 RMK A01 T00601022  RH  055%=      5-min Rain = 0
KKN1 250403Z 03007KT 06/M02 A3021 RMK A01 T00611022  RH  055%=      5-min Rain = 0
KKN1 250404Z 03007KT 06/M02 A3021 RMK A01 T00611022  RH  055%=      5-min Rain = 0
KKN1 250405Z 03007KT 06/M02 A3021 RMK A01 T00611021  RH  056%=      5-min Rain = 0
KKN1 250406Z 03007KT 06/M02 A3021 RMK A01 T00601022  RH  056%=      5-min Rain = 0
KKN1 250407Z 03007KT 06/M02 A3021 RMK A01 T00591021  RH  056%=      5-min Rain = 0
KKN1 250408Z 03007KT 06/M02 A3021 RMK A01 T00591022  RH  056%=      5-min Rain = 0
KKN1 250409Z 03007KT 06/M02 A3021 RMK A01 T00591022  RH  056%=      5-min Rain = 0
KKN1 250410Z 03007KT 06/M02 A3021 RMK A01 T00591022  RH  056%=      5-min Rain = 0
KKN1 250411Z 03006KT 06/M02 A3021 RMK A01 T00591022  RH  056%=      5-min Rain = 0
KKN1 250412Z 03007KT 06/M02 A3022 RMK A01 T00591022  RH  056%=      5-min Rain = 0
KKN1 250413Z 03006KT 06/M02 A3022 RMK A01 T00591022  RH  056%=      5-min Rain = 0
KKN1 250414Z 03007KT 06/M02 A3022 RMK A01 T00591022  RH  056%=      5-min Rain = 0
KKN1 250415Z 03007KT 06/M02 A3022 RMK A01 T00581023  RH  056%=      5-min Rain = 0
KKN1 250416Z 03006KT 06/M02 A3022 RMK A01 T00591023  RH  056%=      5-min Rain = 0
KKN1 250417Z 03006KT 06/M02 A3022 RMK A01 T00591022  RH  056%=      5-min Rain = 0
KKN1 250418Z 03006KT 06/M02 A3022 RMK A01 T00591022  RH  056%=      5-min Rain = 0
KKN1 250419Z 03006KT 06/M02 A3022 RMK A01 T00591022  RH  056%=      5-min Rain = 0
KKN1 250420Z 03006KT 06/M02 A3022 RMK A01 T00581022  RH  056%=      5-min Rain = 0
KKN1 250421Z 03006KT 06/M02 A3022 RMK A01 T00581022  RH  056%=      5-min Rain = 0
KKN1 250422Z 03007KT 06/M02 A3022 RMK A01 T00571022  RH  057%=      5-min Rain = 0
KKN1 250423Z 03007KT 06/M02 A3022 RMK A01 T00571022  RH  057%=      5-min Rain = 0
KKN1 250424Z 04006KT 06/M02 A3022 RMK A01 T00561022  RH  057%=      5-min Rain = 0
KKN1 250425Z 04006KT 06/M02 A3022 RMK A01 T00561022  RH  057%=      5-min Rain = 0
KKN1 250426Z 04006KT 06/M02 A3022 RMK A01 T00551022  RH  058%=      5-min Rain = 0
KKN1 250427Z 04005KT 06/M02 A3022 RMK A01 T00551022  RH  058%=      5-min Rain = 0
KKN1 250428Z 04005KT 06/M02 A3022 RMK A01 T00551021  RH  058%=      5-min Rain = 0
KKN1 250429Z 04006KT 05/M02 A3022 RMK A01 T00541021  RH  058%=      5-min Rain = 0
KKN1 250430Z 04005KT 05/M02 A3022 RMK A01 T00541022  RH  058%=      5-min Rain = 0
KKN1 250431Z 04005KT 05/M02 A3022 RMK A01 T00541022  RH  058%=      5-min Rain = 0
KKN1 250432Z 04006KT 05/M02 A3023 RMK A01 T00541021  RH  058%=      5-min Rain = 0
KKN1 250433Z 04006KT 05/M02 A3023 RMK A01 T00531021  RH  059%=      5-min Rain = 0
KKN1 250434Z 03006KT 05/M02 A3023 RMK A01 T00531021  RH  059%=      5-min Rain = 0
KKN1 250435Z 03006KT 05/M02 A3023 RMK A01 T00521021  RH  060%=      5-min Rain = 0
KKN1 250436Z 04006KT 05/M02 A3023 RMK A01 T00511020  RH  060%=      5-min Rain = 0
KKN1 250437Z 03006KT 05/M02 A3023 RMK A01 T00501021  RH  060%=      5-min Rain = 0
KKN1 250438Z 03006KT 05/M02 A3023 RMK A01 T00491020  RH  061%=      5-min Rain = 0
KKN1 250439Z 03005KT 05/M02 A3023 RMK A01 T00491020  RH  061%=      5-min Rain = 0
KKN1 250440Z 04006KT 05/M02 A3023 RMK A01 T00491020  RH  061%=      5-min Rain = 0
KKN1 250441Z 04006KT 05/M02 A3023 RMK A01 T00491020  RH  061%=      5-min Rain = 0
KKN1 250442Z 03006KT 05/M02 A3023 RMK A01 T00491020  RH  061%=      5-min Rain = 0
KKN1 250443Z 03006KT 05/M02 A3023 RMK A01 T00491020  RH  061%=      5-min Rain = 0
KKN1 250444Z 04006KT 05/M02 A3023 RMK A01 T00481020  RH  062%=      5-min Rain = 0
KKN1 250445Z 03006KT 05/M02 A3023 RMK A01 T00471020  RH  062%=      5-min Rain = 0
KKN1 250446Z 04006KT 05/M02 A3023 RMK A01 T00471020  RH  062%=      5-min Rain = 0
KKN1 250447Z 04006KT 05/M02 A3023 RMK A01 T00481020  RH  061%=      5-min Rain = 0
KKN1 250448Z 04006KT 05/M02 A3023 RMK A01 T00481020  RH  061%=      5-min Rain = 0
KKN1 250449Z 03006KT 05/M02 A3023 RMK A01 T00481020  RH  061%=      5-min Rain = 0
KKN1 250450Z 03006KT 05/M02 A3023 RMK A01 T00481020  RH  061%=      5-min Rain = 0
KKN1 250451Z 03006KT 05/M02 A3023 RMK A01 T00481020  RH  061%=      5-min Rain = 0
KKN1 250452Z 04007KT 05/M02 A3023 RMK A01 T00471020  RH  061%=      5-min Rain = 0
KKN1 250453Z 03007KT 05/M02 A3023 RMK A01 T00481021  RH  061%=      5-min Rain = 0
KKN1 250454Z 04007KT 05/M02 A3023 RMK A01 T00481021  RH  061%=      5-min Rain = 0
KKN1 250455Z 04007KT 05/M02 A3023 RMK A01 T00481021  RH  061%=      5-min Rain = 0
KKN1 250456Z 04007KT 05/M02 A3023 RMK A01 T00491020  RH  061%=      5-min Rain = 0
KKN1 250457Z 04007KT 05/M02 A3023 RMK A01 T00491021  RH  061%=      5-min Rain = 0
KKN1 250458Z 04007KT 05/M02 A3023 RMK A01 T00491020  RH  061%=      5-min Rain = 0
KKN1 250459Z 04006KT 05/M02 A3023 RMK A01 T00491020  RH  061%=      5-min Rain = 0
KKN1 250500Z 04006KT 05/M02 A3023 RMK A01 T00481020  RH  061%=      5-min Rain = 0
KKN1 250501Z 04007KT 05/M02 A3023 RMK A01 T00481021  RH  061%=      5-min Rain = 0
KKN1 250502Z 04007KT 05/M02 A3023 RMK A01 T00471021  RH  061%=      5-min Rain = 0
KKN1 250503Z 04007KT 05/M02 A3023 RMK A01 T00471021  RH  061%=      5-min Rain = 0
KKN1 250504Z 05006KT 05/M02 A3023 RMK A01 T00471021  RH  061%=      5-min Rain = 0
KKN1 250505Z 05007KT 05/M02 A3022 RMK A01 T00461021  RH  062%=      5-min Rain = 0
KKN1 250506Z 05007KT 05/M02 A3022 RMK A01 T00461021  RH  062%=      5-min Rain = 0
KKN1 250507Z 05006KT 05/M02 A3022 RMK A01 T00451022  RH  062%=      5-min Rain = 0
KKN1 250508Z 06006KT 05/M02 A3022 RMK A01 T00451022  RH  062%=      5-min Rain = 0
KKN1 250509Z 06007KT 05/M02 A3022 RMK A01 T00461022  RH  062%=      5-min Rain = 0
KKN1 250510Z 06007KT 05/M02 A3022 RMK A01 T00461022  RH  061%=      5-min Rain = 0
KKN1 250511Z 06007KT 05/M02 A3022 RMK A01 T00461022  RH  061%=      5-min Rain = 0
KKN1 250512Z 06006KT 05/M02 A3022 RMK A01 T00451022  RH  062%=      5-min Rain = 0
KKN1 250513Z 06006KT 05/M02 A3022 RMK A01 T00451022  RH  062%=      5-min Rain = 0
KKN1 250514Z 06006KT 04/M02 A3022 RMK A01 T00441021  RH  062%=      5-min Rain = 0
KKN1 250515Z 06006KT 04/M02 A3022 RMK A01 T00441021  RH  063%=      5-min Rain = 0
KKN1 250516Z 06006KT 04/M02 A3022 RMK A01 T00441021  RH  063%=      5-min Rain = 0
KKN1 250517Z 06006KT 04/M02 A3022 RMK A01 T00431021  RH  063%=      5-min Rain = 0
KKN1 250518Z 05007KT 04/M02 A3022 RMK A01 T00431021  RH  063%=      5-min Rain = 0
KKN1 250519Z 05007KT 04/M02 A3022 RMK A01 T00421021  RH  063%=      5-min Rain = 0
KKN1 250520Z 05006KT 04/M02 A3022 RMK A01 T00421021  RH  064%=      5-min Rain = 0
KKN1 250521Z 05006KT 04/M02 A3022 RMK A01 T00421021  RH  064%=      5-min Rain = 0
KKN1 250522Z 05006KT 04/M02 A3022 RMK A01 T00421021  RH  064%=      5-min Rain = 0
KKN1 250523Z 05006KT 04/M02 A3022 RMK A01 T00411021  RH  064%=      5-min Rain = 0
KKN1 250524Z 05006KT 04/M02 A3022 RMK A01 T00411021  RH  064%=      5-min Rain = 0
KKN1 250525Z 05006KT 04/M02 A3023 RMK A01 T00411020  RH  064%=      5-min Rain = 0
KKN1 250526Z 05006KT 04/M02 A3023 RMK A01 T00401020  RH  065%=      5-min Rain = 0
KKN1 250527Z 05005KT 04/M02 A3023 RMK A01 T00401020  RH  065%=      5-min Rain = 0
KKN1 250528Z 05006KT 04/M02 A3023 RMK A01 T00391020  RH  065%=      5-min Rain = 0
KKN1 250529Z 05006KT 04/M02 A3023 RMK A01 T00391020  RH  065%=      5-min Rain = 0
KKN1 250530Z 05006KT 04/M02 A3022 RMK A01 T00381020  RH  066%=      5-min Rain = 0
KKN1 250531Z 05006KT 04/M02 A3022 RMK A01 T00381020  RH  066%=      5-min Rain = 0
KKN1 250532Z 05006KT 04/M02 A3022 RMK A01 T00381021  RH  066%=      5-min Rain = 0
KKN1 250533Z 05006KT 04/M02 A3022 RMK A01 T00381021  RH  066%=      5-min Rain = 0
KKN1 250534Z 05006KT 04/M02 A3022 RMK A01 T00371021  RH  066%=      5-min Rain = 0
KKN1 250535Z 05005KT 04/M02 A3022 RMK A01 T00371020  RH  066%=      5-min Rain = 0
KKN1 250536Z 05005KT 04/M02 A3022 RMK A01 T00361021  RH  066%=      5-min Rain = 0
KKN1 250537Z 04005KT 04/M02 A3022 RMK A01 T00351021  RH  067%=      5-min Rain = 0
KKN1 250538Z 04005KT 04/M02 A3022 RMK A01 T00351021  RH  067%=      5-min Rain = 0
KKN1 250539Z 04005KT 04/M02 A3022 RMK A01 T00351021  RH  067%=      5-min Rain = 0
KKN1 250540Z 04005KT 04/M02 A3022 RMK A01 T00351021  RH  067%=      5-min Rain = 0
KKN1 250541Z 05005KT 04/M02 A3022 RMK A01 T00351020  RH  067%=      5-min Rain = 0
KKN1 250542Z 05005KT 03/M02 A3022 RMK A01 T00341020  RH  068%=      5-min Rain = 0
KKN1 250543Z 04005KT 03/M02 A3022 RMK A01 T00341019  RH  068%=      5-min Rain = 0
KKN1 250544Z 05005KT 03/M02 A3022 RMK A01 T00331019  RH  068%=      5-min Rain = 0
KKN1 250545Z 04004KT 03/M02 A3022 RMK A01 T00331019  RH  069%=      5-min Rain = 0
KKN1 250546Z 04004KT 03/M02 A3022 RMK A01 T00331019  RH  069%=      5-min Rain = 0
KKN1 250547Z 04004KT 03/M02 A3022 RMK A01 T00331018  RH  069%=      5-min Rain = 0
KKN1 250548Z 04004KT 03/M02 A3022 RMK A01 T00331018  RH  069%=      5-min Rain = 0
KKN1 250549Z 04004KT 03/M02 A3022 RMK A01 T00331019  RH  069%=      5-min Rain = 0
KKN1 250550Z 04004KT 03/M02 A3022 RMK A01 T00331019  RH  069%=      5-min Rain = 0
KKN1 250551Z 04005KT 03/M02 A3022 RMK A01 T00341019  RH  068%=      5-min Rain = 0
KKN1 250552Z 04004KT 04/M02 A3022 RMK A01 T00351019  RH  068%=      5-min Rain = 0
KKN1 250553Z 04004KT 03/M02 A3022 RMK A01 T00341019  RH  068%=      5-min Rain = 0
KKN1 250554Z 04004KT 03/M02 A3022 RMK A01 T00331019  RH  069%=      5-min Rain = 0
KKN1 250555Z 05004KT 03/M02 A3022 RMK A01 T00321019  RH  069%=      5-min Rain = 0
KKN1 250556Z 05003KT 03/M02 A3022 RMK A01 T00321019  RH  069%=      5-min Rain = 0
KKN1 250557Z 05003KT 03/M02 A3022 RMK A01 T00331019  RH  069%=      5-min Rain = 0
KKN1 250558Z 05003KT 03/M02 A3022 RMK A01 T00331019  RH  068%=      5-min Rain = 0
KKN1 250559Z 05003KT 03/M02 A3022 RMK A01 T00341019  RH  068%=      5-min Rain = 0

Page generated in 0.1262 seconds.